Observation data for Happy on 08/12/2020      Previous  Date  Next       Current Mesonet Observations  Soil Data  Daily Summary Page  Observations in Plain Language
KHA2 120500Z 16009KT 25/12 A2999 RMK A01 T02460122  RH  046%=      5-min Rain = 0
KHA2 120501Z 16009KT 25/12 A2999 RMK A01 T02460123  RH  046%=      5-min Rain = 0
KHA2 120502Z 16009KT 25/12 A2999 RMK A01 T02460122  RH  046%=      5-min Rain = 0
KHA2 120503Z 15009KT 25/12 A2999 RMK A01 T02450122  RH  046%=      5-min Rain = 0
KHA2 120504Z 15009KT 25/12 A2999 RMK A01 T02450122  RH  046%=      5-min Rain = 0
KHA2 120505Z 15008KT 24/12 A2999 RMK A01 T02440122  RH  047%=      5-min Rain = 0
KHA2 120506Z 15007KT 24/12 A30 RMK A01 T02420123  RH  047%=      5-min Rain = 0
KHA2 120507Z 15008KT 24/12 A30 RMK A01 T02410123  RH  048%=      5-min Rain = 0
KHA2 120508Z 15008KT 24/12 A30 RMK A01 T02400122  RH  048%=      5-min Rain = 0
KHA2 120509Z 16008KT 24/12 A30 RMK A01 T02390123  RH  048%=      5-min Rain = 0
KHA2 120510Z 16008KT 24/12 A30 RMK A01 T02380123  RH  048%=      5-min Rain = 0
KHA2 120511Z 16008KT 24/12 A30 RMK A01 T02370123  RH  049%=      5-min Rain = 0
KHA2 120512Z 16008KT 24/12 A30 RMK A01 T02360123  RH  049%=      5-min Rain = 0
KHA2 120513Z 16008KT 24/12 A30 RMK A01 T02350123  RH  049%=      5-min Rain = 0
KHA2 120514Z 15007KT 23/12 A30 RMK A01 T02340123  RH  050%=      5-min Rain = 0
KHA2 120515Z 16007KT 23/12 A30 RMK A01 T02330123  RH  050%=      5-min Rain = 0
KHA2 120516Z 16007KT 23/12 A30 RMK A01 T02320123  RH  050%=      5-min Rain = 0
KHA2 120517Z 16006KT 23/12 A30 RMK A01 T02310123  RH  050%=      5-min Rain = 0
KHA2 120518Z 16007KT 23/12 A30 RMK A01 T02310123  RH  051%=      5-min Rain = 0
KHA2 120519Z 16006KT 23/12 A30 RMK A01 T02300122  RH  051%=      5-min Rain = 0
KHA2 120520Z 17006KT 23/12 A30 RMK A01 T02300122  RH  051%=      5-min Rain = 0
KHA2 120521Z 18006KT 23/12 A30 RMK A01 T02300124  RH  051%=      5-min Rain = 0
KHA2 120522Z 19006KT 23/12 A30 RMK A01 T02280124  RH  052%=      5-min Rain = 0
KHA2 120523Z 19006KT 23/12 A30 RMK A01 T02270124  RH  052%=      5-min Rain = 0
KHA2 120524Z 19007KT 23/12 A30 RMK A01 T02260123  RH  052%=      5-min Rain = 0
KHA2 120525Z 19007KT 23/12 A30 RMK A01 T02260123  RH  052%=      5-min Rain = 0
KHA2 120526Z 19008KT 23/12 A30 RMK A01 T02250123  RH  052%=      5-min Rain = 0
KHA2 120527Z 20009KT 23/12 A30 RMK A01 T02250123  RH  052%=      5-min Rain = 0
KHA2 120528Z 19008KT 23/12 A30 RMK A01 T02250123  RH  052%=      5-min Rain = 0
KHA2 120529Z 20008KT 23/12 A30 RMK A01 T02250123  RH  052%=      5-min Rain = 0
KHA2 120530Z 20008KT 23/12 A30 RMK A01 T02260123  RH  052%=      5-min Rain = 0
KHA2 120531Z 21009KT 23/12 A30 RMK A01 T02260123  RH  052%=      5-min Rain = 0
KHA2 120532Z 21009KT 23/12 A30 RMK A01 T02280122  RH  051%=      5-min Rain = 0
KHA2 120533Z 21008KT 23/12 A30 RMK A01 T02290122  RH  051%=      5-min Rain = 0
KHA2 120534Z 21009KT 23/12 A3001 RMK A01 T02290122  RH  051%=      5-min Rain = 0
KHA2 120535Z 21008KT 23/12 A3001 RMK A01 T02280121  RH  051%=      5-min Rain = 0
KHA2 120536Z 21008KT 23/12 A3001 RMK A01 T02270121  RH  051%=      5-min Rain = 0
KHA2 120537Z 21008KT 23/12 A3001 RMK A01 T02270120  RH  051%=      5-min Rain = 0
KHA2 120538Z 21008KT 23/12 A3001 RMK A01 T02270121  RH  051%=      5-min Rain = 0
KHA2 120539Z 21008KT 23/12 A3001 RMK A01 T02270121  RH  051%=      5-min Rain = 0
KHA2 120540Z 21008KT 23/12 A3001 RMK A01 T02270121  RH  051%=      5-min Rain = 0
KHA2 120541Z 22007KT 23/12 A3001 RMK A01 T02270121  RH  051%=      5-min Rain = 0
KHA2 120542Z 22008KT 23/12 A3001 RMK A01 T02270122  RH  052%=      5-min Rain = 0
KHA2 120543Z 21008KT 23/12 A3001 RMK A01 T02260121  RH  052%=      5-min Rain = 0
KHA2 120544Z 21009KT 23/12 A3001 RMK A01 T02260121  RH  051%=      5-min Rain = 0
KHA2 120545Z 21009KT 23/12 A3001 RMK A01 T02260122  RH  052%=      5-min Rain = 0
KHA2 120546Z 22009KT 23/12 A3001 RMK A01 T02260122  RH  052%=      5-min Rain = 0
KHA2 120547Z 22009KT 23/12 A3001 RMK A01 T02270122  RH  051%=      5-min Rain = 0
KHA2 120548Z 22011KT 23/12 A3001 RMK A01 T02280121  RH  051%=      5-min Rain = 0
KHA2 120549Z 22011KT 23/12 A3001 RMK A01 T02340121  RH  049%=      5-min Rain = 0
KHA2 120550Z 21011KT 24/12 A3001 RMK A01 T02380120  RH  048%=      5-min Rain = 0
KHA2 120551Z 21010KT 24/12 A3001 RMK A01 T02400122  RH  048%=      5-min Rain = 0
KHA2 120552Z 22010KT 24/12 A3001 RMK A01 T02390122  RH  048%=      5-min Rain = 0
KHA2 120553Z 22010KT 24/12 A3001 RMK A01 T02390122  RH  048%=      5-min Rain = 0
KHA2 120554Z 22010KT 24/12 A3001 RMK A01 T02390122  RH  048%=      5-min Rain = 0
KHA2 120555Z 21010KT 24/12 A3001 RMK A01 T02390122  RH  048%=      5-min Rain = 0
KHA2 120556Z 22010KT 24/12 A3001 RMK A01 T02400122  RH  048%=      5-min Rain = 0
KHA2 120557Z 22010KT 24/12 A3001 RMK A01 T02400122  RH  048%=      5-min Rain = 0
KHA2 120558Z 21010KT 24/12 A3001 RMK A01 T02400122  RH  048%=      5-min Rain = 0
KHA2 120559Z 21011KT 24/12 A3001 RMK A01 T02400122  RH  048%=      5-min Rain = 0
KHA2 120600Z 22011KT 24/12 A3001 RMK A01 T02410121  RH  047%=      5-min Rain = 0
KHA2 120601Z 22010KT 24/12 A3001 RMK A01 T02430122  RH  047%=      5-min Rain = 0
KHA2 120602Z 21010KT 24/12 A3001 RMK A01 T02420122  RH  047%=      5-min Rain = 0
KHA2 120603Z 21010KT 24/12 A3001 RMK A01 T02410123  RH  048%=      5-min Rain = 0
KHA2 120604Z 21009KT 24/12 A3001 RMK A01 T02410122  RH  047%=      5-min Rain = 0
KHA2 120605Z 21010KT 24/12 A3001 RMK A01 T02410124  RH  048%=      5-min Rain = 0
KHA2 120606Z 21010KT 24/12 A3001 RMK A01 T02400124  RH  048%=      5-min Rain = 0
KHA2 120607Z 21009KT 24/12 A3001 RMK A01 T02400124  RH  048%=      5-min Rain = 0
KHA2 120608Z 21009KT 24/12 A3001 RMK A01 T02400124  RH  048%=      5-min Rain = 0
KHA2 120609Z 20009KT 24/12 A3001 RMK A01 T02400124  RH  048%=      5-min Rain = 0
KHA2 120610Z 20009KT 24/13 A3001 RMK A01 T02400125  RH  048%=      5-min Rain = 0
KHA2 120611Z 20009KT 24/13 A3001 RMK A01 T02390125  RH  049%=      5-min Rain = 0
KHA2 120612Z 20010KT 24/13 A3001 RMK A01 T02390125  RH  049%=      5-min Rain = 0
KHA2 120613Z 20009KT 24/12 A30 RMK A01 T02390124  RH  049%=      5-min Rain = 0
KHA2 120614Z 20009KT 24/13 A30 RMK A01 T02390125  RH  049%=      5-min Rain = 0
KHA2 120615Z 20008KT 24/13 A30 RMK A01 T02380126  RH  049%=      5-min Rain = 0
KHA2 120616Z 19008KT 24/13 A30 RMK A01 T02370126  RH  049%=      5-min Rain = 0
KHA2 120617Z 20008KT 24/13 A30 RMK A01 T02370125  RH  049%=      5-min Rain = 0
KHA2 120618Z 20008KT 24/13 A30 RMK A01 T02370125  RH  049%=      5-min Rain = 0
KHA2 120619Z 20007KT 24/13 A30 RMK A01 T02370125  RH  050%=      5-min Rain = 0
KHA2 120620Z 20007KT 24/13 A30 RMK A01 T02360126  RH  050%=      5-min Rain = 0
KHA2 120621Z 20007KT 24/13 A30 RMK A01 T02360126  RH  050%=      5-min Rain = 0
KHA2 120622Z 20007KT 24/13 A30 RMK A01 T02350125  RH  050%=      5-min Rain = 0
KHA2 120623Z 20007KT 24/13 A30 RMK A01 T02350125  RH  050%=      5-min Rain = 0
KHA2 120624Z 19007KT 24/13 A30 RMK A01 T02350125  RH  050%=      5-min Rain = 0
KHA2 120625Z 19007KT 23/12 A30 RMK A01 T02340124  RH  050%=      5-min Rain = 0
KHA2 120626Z 19007KT 24/13 A30 RMK A01 T02350125  RH  050%=      5-min Rain = 0
KHA2 120627Z 19007KT 23/13 A30 RMK A01 T02340125  RH  050%=      5-min Rain = 0
KHA2 120628Z 19007KT 23/13 A30 RMK A01 T02340125  RH  050%=      5-min Rain = 0
KHA2 120629Z 19007KT 23/13 A3001 RMK A01 T02330125  RH  051%=      5-min Rain = 0
KHA2 120630Z 19007KT 23/13 A3001 RMK A01 T02320125  RH  051%=      5-min Rain = 0
KHA2 120631Z 19007KT 23/13 A3001 RMK A01 T02310125  RH  051%=      5-min Rain = 0
KHA2 120632Z 19006KT 23/13 A3001 RMK A01 T02300126  RH  052%=      5-min Rain = 0
KHA2 120633Z 18006KT 23/13 A3001 RMK A01 T02290126  RH  052%=      5-min Rain = 0
KHA2 120634Z 18006KT 23/13 A3001 RMK A01 T02270127  RH  053%=      5-min Rain = 0
KHA2 120635Z 19006KT 23/13 A3001 RMK A01 T02260127  RH  053%=      5-min Rain = 0
KHA2 120636Z 18006KT 23/13 A3001 RMK A01 T02250127  RH  054%=      5-min Rain = 0
KHA2 120637Z 18006KT 22/13 A30 RMK A01 T02240127  RH  054%=      5-min Rain = 0
KHA2 120638Z 18006KT 22/13 A30 RMK A01 T02230126  RH  054%=      5-min Rain = 0
KHA2 120639Z 18006KT 22/13 A30 RMK A01 T02230127  RH  055%=      5-min Rain = 0
KHA2 120640Z 18006KT 22/13 A30 RMK A01 T02220127  RH  055%=      5-min Rain = 0
KHA2 120641Z 18006KT 22/13 A30 RMK A01 T02220127  RH  055%=      5-min Rain = 0
KHA2 120642Z 18006KT 22/13 A30 RMK A01 T02210127  RH  055%=      5-min Rain = 0
KHA2 120643Z 17006KT 22/13 A30 RMK A01 T02210126  RH  055%=      5-min Rain = 0
KHA2 120644Z 17007KT 22/13 A30 RMK A01 T02200126  RH  055%=      5-min Rain = 0
KHA2 120645Z 17007KT 22/13 A30 RMK A01 T02200126  RH  055%=      5-min Rain = 0
KHA2 120646Z 17007KT 22/13 A30 RMK A01 T02200127  RH  056%=      5-min Rain = 0
KHA2 120647Z 17007KT 22/13 A30 RMK A01 T02190129  RH  056%=      5-min Rain = 0
KHA2 120648Z 17007KT 22/13 A30 RMK A01 T02180129  RH  057%=      5-min Rain = 0
KHA2 120649Z 17007KT 22/13 A30 RMK A01 T02170129  RH  057%=      5-min Rain = 0
KHA2 120650Z 18007KT 22/13 A30 RMK A01 T02160127  RH  057%=      5-min Rain = 0
KHA2 120651Z 18007KT 22/13 A30 RMK A01 T02160127  RH  057%=      5-min Rain = 0
KHA2 120652Z 18008KT 22/13 A30 RMK A01 T02170127  RH  057%=      5-min Rain = 0
KHA2 120653Z 18008KT 22/13 A30 RMK A01 T02170128  RH  057%=      5-min Rain = 0
KHA2 120654Z 17007KT 22/13 A30 RMK A01 T02170127  RH  057%=      5-min Rain = 0
KHA2 120655Z 17007KT 22/13 A30 RMK A01 T02160129  RH  057%=      5-min Rain = 0
KHA2 120656Z 17007KT 22/13 A3001 RMK A01 T02160128  RH  057%=      5-min Rain = 0
KHA2 120657Z 16008KT 22/13 A3001 RMK A01 T02150128  RH  058%=      5-min Rain = 0
KHA2 120658Z 16009KT 22/13 A3001 RMK A01 T02150128  RH  058%=      5-min Rain = 0
KHA2 120659Z 16009KT 22/13 A3001 RMK A01 T02150127  RH  057%=      5-min Rain = 0
KHA2 120700Z 17009KT 22/13 A3001 RMK A01 T02170126  RH  056%=      5-min Rain = 0
KHA2 120701Z 17009KT 22/12 A3001 RMK A01 T02190124  RH  055%=      5-min Rain = 0
KHA2 120702Z 18009KT 22/12 A3001 RMK A01 T02220124  RH  054%=      5-min Rain = 0
KHA2 120703Z 18009KT 23/12 A3001 RMK A01 T02250122  RH  052%=      5-min Rain = 0
KHA2 120704Z 18011KT 23/12 A3001 RMK A01 T02290120  RH  050%=      5-min Rain = 0
KHA2 120705Z 18010KT 24/12 A3001 RMK A01 T02360118  RH  048%=      5-min Rain = 0
KHA2 120706Z 18009KT 24/12 A3001 RMK A01 T02390119  RH  047%=      5-min Rain = 0
KHA2 120707Z 19009KT 24/12 A30 RMK A01 T02400118  RH  046%=      5-min Rain = 0
KHA2 120708Z 19010KT 24/12 A30 RMK A01 T02400119  RH  047%=      5-min Rain = 0
KHA2 120709Z 19009KT 24/12 A30 RMK A01 T02400119  RH  047%=      5-min Rain = 0
KHA2 120710Z 19009KT 24/12 A3001 RMK A01 T02390119  RH  047%=      5-min Rain = 0
KHA2 120711Z 19009KT 24/12 A3001 RMK A01 T02380120  RH  047%=      5-min Rain = 0
KHA2 120712Z 19008KT 24/12 A3001 RMK A01 T02370120  RH  048%=      5-min Rain = 0
KHA2 120713Z 19009KT 24/12 A3001 RMK A01 T02360119  RH  048%=      5-min Rain = 0
KHA2 120714Z 19009KT 24/12 A3001 RMK A01 T02380115  RH  046%=      5-min Rain = 0
KHA2 120715Z 18008KT 24/12 A3001 RMK A01 T02390116  RH  046%=      5-min Rain = 0
KHA2 120716Z 18009KT 24/12 A3001 RMK A01 T02400117  RH  046%=      5-min Rain = 0
KHA2 120717Z 18008KT 24/12 A3001 RMK A01 T02380118  RH  047%=      5-min Rain = 0
KHA2 120718Z 18008KT 24/12 A3001 RMK A01 T02360118  RH  047%=      5-min Rain = 0
KHA2 120719Z 19008KT 24/12 A3001 RMK A01 T02350117  RH  047%=      5-min Rain = 0
KHA2 120720Z 19008KT 24/12 A30 RMK A01 T02350115  RH  047%=      5-min Rain = 0
KHA2 120721Z 19008KT 24/12 A30 RMK A01 T02360116  RH  047%=      5-min Rain = 0
KHA2 120722Z 19009KT 24/12 A30 RMK A01 T02360117  RH  047%=      5-min Rain = 0
KHA2 120723Z 19009KT 24/12 A30 RMK A01 T02370117  RH  047%=      5-min Rain = 0
KHA2 120724Z 19009KT 24/12 A30 RMK A01 T02380118  RH  047%=      5-min Rain = 0
KHA2 120725Z 19009KT 24/12 A30 RMK A01 T02380117  RH  047%=      5-min Rain = 0
KHA2 120726Z 18009KT 24/12 A30 RMK A01 T02390117  RH  046%=      5-min Rain = 0
KHA2 120727Z 18009KT 24/12 A30 RMK A01 T02390118  RH  047%=      5-min Rain = 0
KHA2 120728Z 18009KT 24/12 A3001 RMK A01 T02380119  RH  047%=      5-min Rain = 0
KHA2 120729Z 18010KT 24/12 A3001 RMK A01 T02390119  RH  047%=      5-min Rain = 0
KHA2 120730Z 18010KT 24/12 A3001 RMK A01 T02390119  RH  047%=      5-min Rain = 0
KHA2 120731Z 18009KT 24/12 A3001 RMK A01 T02380118  RH  047%=      5-min Rain = 0
KHA2 120732Z 18009KT 24/12 A3001 RMK A01 T02380119  RH  047%=      5-min Rain = 0
KHA2 120733Z 18009KT 24/12 A3001 RMK A01 T02370119  RH  048%=      5-min Rain = 0
KHA2 120734Z 18009KT 24/12 A3001 RMK A01 T02360120  RH  048%=      5-min Rain = 0
KHA2 120735Z 19008KT 24/12 A3001 RMK A01 T02350121  RH  049%=      5-min Rain = 0
KHA2 120736Z 19009KT 23/12 A3001 RMK A01 T02340121  RH  049%=      5-min Rain = 0
KHA2 120737Z 19009KT 23/12 A30 RMK A01 T02330121  RH  049%=      5-min Rain = 0
KHA2 120738Z 19009KT 23/12 A30 RMK A01 T02330120  RH  049%=      5-min Rain = 0
KHA2 120739Z 19010KT 23/12 A30 RMK A01 T02330120  RH  049%=      5-min Rain = 0
KHA2 120740Z 19010KT 23/12 A30 RMK A01 T02330121  RH  049%=      5-min Rain = 0
KHA2 120741Z 19010KT 23/12 A30 RMK A01 T02320122  RH  050%=      5-min Rain = 0
KHA2 120742Z 19010KT 23/12 A30 RMK A01 T02320123  RH  050%=      5-min Rain = 0
KHA2 120743Z 19009KT 23/12 A30 RMK A01 T02310122  RH  050%=      5-min Rain = 0
KHA2 120744Z 19010KT 23/12 A30 RMK A01 T02310123  RH  050%=      5-min Rain = 0
KHA2 120745Z 19010KT 23/12 A30 RMK A01 T02310123  RH  050%=      5-min Rain = 0
KHA2 120746Z 19010KT 23/12 A30 RMK A01 T02320123  RH  050%=      5-min Rain = 0
KHA2 120747Z 19010KT 23/12 A30 RMK A01 T02330123  RH  050%=      5-min Rain = 0
KHA2 120748Z 19010KT 24/12 A30 RMK A01 T02350124  RH  050%=      5-min Rain = 0
KHA2 120749Z 19010KT 24/12 A30 RMK A01 T02360124  RH  049%=      5-min Rain = 0
KHA2 120750Z 19010KT 24/12 A30 RMK A01 T02360124  RH  049%=      5-min Rain = 0
KHA2 120751Z 19010KT 24/12 A30 RMK A01 T02360124  RH  049%=      5-min Rain = 0
KHA2 120752Z 19010KT 24/12 A30 RMK A01 T02370124  RH  049%=      5-min Rain = 0
KHA2 120753Z 19011KT 24/13 A30 RMK A01 T02370125  RH  049%=      5-min Rain = 0
KHA2 120754Z 20011KT 24/13 A30 RMK A01 T02370125  RH  050%=      5-min Rain = 0
KHA2 120755Z 20011KT 24/13 A30 RMK A01 T02370126  RH  050%=      5-min Rain = 0
KHA2 120756Z 20011KT 24/13 A30 RMK A01 T02370126  RH  050%=      5-min Rain = 0
KHA2 120757Z 20011KT 24/13 A30 RMK A01 T02370126  RH  050%=      5-min Rain = 0
KHA2 120758Z 20010KT 24/13 A30 RMK A01 T02380126  RH  049%=      5-min Rain = 0
KHA2 120759Z 20009KT 24/13 A30 RMK A01 T02380126  RH  049%=      5-min Rain = 0
KHA2 120800Z 20009KT 24/13 A30 RMK A01 T02380126  RH  050%=      5-min Rain = 0
KHA2 120801Z 20009KT 24/13 A30 RMK A01 T02370125  RH  050%=      5-min Rain = 0
KHA2 120802Z 19009KT 24/13 A30 RMK A01 T02370125  RH  049%=      5-min Rain = 0
KHA2 120803Z 19009KT 24/13 A30 RMK A01 T02370126  RH  050%=      5-min Rain = 0
KHA2 120804Z 19010KT 24/13 A30 RMK A01 T02360126  RH  050%=      5-min Rain = 0
KHA2 120805Z 20010KT 24/13 A30 RMK A01 T02350126  RH  050%=      5-min Rain = 0
KHA2 120806Z 20010KT 23/13 A30 RMK A01 T02340126  RH  050%=      5-min Rain = 0
KHA2 120807Z 20010KT 23/13 A30 RMK A01 T02330125  RH  051%=      5-min Rain = 0
KHA2 120808Z 19010KT 23/13 A30 RMK A01 T02320126  RH  051%=      5-min Rain = 0
KHA2 120809Z 19009KT 23/13 A30 RMK A01 T02320126  RH  051%=      5-min Rain = 0
KHA2 120810Z 19009KT 23/13 A30 RMK A01 T02310127  RH  052%=      5-min Rain = 0
KHA2 120811Z 19009KT 23/13 A30 RMK A01 T02310127  RH  052%=      5-min Rain = 0
KHA2 120812Z 19008KT 23/13 A30 RMK A01 T02310127  RH  052%=      5-min Rain = 0
KHA2 120813Z 19009KT 23/13 A30 RMK A01 T02310127  RH  052%=      5-min Rain = 0
KHA2 120814Z 19008KT 23/13 A30 RMK A01 T02310129  RH  052%=      5-min Rain = 0
KHA2 120815Z 19008KT 23/13 A30 RMK A01 T02300129  RH  053%=      5-min Rain = 0
KHA2 120816Z 19008KT 23/13 A30 RMK A01 T02300129  RH  053%=      5-min Rain = 0
KHA2 120817Z 19008KT 23/13 A30 RMK A01 T02280129  RH  054%=      5-min Rain = 0
KHA2 120818Z 19007KT 23/13 A30 RMK A01 T02270129  RH  054%=      5-min Rain = 0
KHA2 120819Z 19008KT 23/13 A30 RMK A01 T02270129  RH  054%=      5-min Rain = 0
KHA2 120820Z 19007KT 23/13 A30 RMK A01 T02260129  RH  054%=      5-min Rain = 0
KHA2 120821Z 19007KT 23/13 A30 RMK A01 T02250129  RH  054%=      5-min Rain = 0
KHA2 120822Z 18007KT 23/13 A30 RMK A01 T02250128  RH  054%=      5-min Rain = 0
KHA2 120823Z 18007KT 22/13 A30 RMK A01 T02240129  RH  055%=      5-min Rain = 0
KHA2 120824Z 18007KT 22/13 A30 RMK A01 T02220129  RH  055%=      5-min Rain = 0
KHA2 120825Z 18006KT 22/13 A30 RMK A01 T02210129  RH  056%=      5-min Rain = 0
KHA2 120826Z 18006KT 22/13 A30 RMK A01 T02190130  RH  057%=      5-min Rain = 0
KHA2 120827Z 17006KT 22/13 A30 RMK A01 T02170130  RH  058%=      5-min Rain = 0
KHA2 120828Z 17006KT 22/13 A30 RMK A01 T02160130  RH  058%=      5-min Rain = 0
KHA2 120829Z 17006KT 22/13 A30 RMK A01 T02150130  RH  058%=      5-min Rain = 0
KHA2 120830Z 17006KT 21/13 A30 RMK A01 T02140130  RH  059%=      5-min Rain = 0
KHA2 120831Z 17006KT 21/13 A30 RMK A01 T02130130  RH  059%=      5-min Rain = 0
KHA2 120832Z 17006KT 21/13 A30 RMK A01 T02130130  RH  059%=      5-min Rain = 0
KHA2 120833Z 17006KT 21/13 A3001 RMK A01 T02120129  RH  059%=      5-min Rain = 0
KHA2 120834Z 17006KT 21/13 A3001 RMK A01 T02120130  RH  059%=      5-min Rain = 0
KHA2 120835Z 17006KT 21/13 A3001 RMK A01 T02120130  RH  060%=      5-min Rain = 0
KHA2 120836Z 17006KT 21/13 A3001 RMK A01 T02110130  RH  060%=      5-min Rain = 0
KHA2 120837Z 17007KT 21/13 A3001 RMK A01 T02110130  RH  060%=      5-min Rain = 0
KHA2 120838Z 17007KT 21/13 A3001 RMK A01 T02100130  RH  060%=      5-min Rain = 0
KHA2 120839Z 17007KT 21/13 A3001 RMK A01 T02100129  RH  060%=      5-min Rain = 0
KHA2 120840Z 17007KT 21/13 A3001 RMK A01 T02100129  RH  060%=      5-min Rain = 0
KHA2 120841Z 18007KT 21/13 A3001 RMK A01 T02100130  RH  060%=      5-min Rain = 0
KHA2 120842Z 18007KT 21/13 A3001 RMK A01 T02100130  RH  060%=      5-min Rain = 0
KHA2 120843Z 18007KT 21/13 A3001 RMK A01 T02100130  RH  060%=      5-min Rain = 0
KHA2 120844Z 18007KT 21/13 A3001 RMK A01 T02100131  RH  061%=      5-min Rain = 0
KHA2 120845Z 18007KT 21/13 A3001 RMK A01 T02090132  RH  061%=      5-min Rain = 0
KHA2 120846Z 18007KT 21/13 A3001 RMK A01 T02080131  RH  062%=      5-min Rain = 0
KHA2 120847Z 18007KT 21/13 A3001 RMK A01 T02080132  RH  062%=      5-min Rain = 0
KHA2 120848Z 19007KT 21/13 A3001 RMK A01 T02080131  RH  061%=      5-min Rain = 0
KHA2 120849Z 19008KT 21/13 A3001 RMK A01 T02080132  RH  061%=      5-min Rain = 0
KHA2 120850Z 19008KT 21/13 A3001 RMK A01 T02080133  RH  062%=      5-min Rain = 0
KHA2 120851Z 19008KT 21/13 A3001 RMK A01 T02080133  RH  062%=      5-min Rain = 0
KHA2 120852Z 19008KT 21/13 A3001 RMK A01 T02080134  RH  062%=      5-min Rain = 0
KHA2 120853Z 19009KT 21/13 A3001 RMK A01 T02080133  RH  062%=      5-min Rain = 0
KHA2 120854Z 19009KT 21/13 A3001 RMK A01 T02090133  RH  062%=      5-min Rain = 0
KHA2 120855Z 19009KT 21/13 A3001 RMK A01 T02110134  RH  062%=      5-min Rain = 0
KHA2 120856Z 19009KT 21/14 A3001 RMK A01 T02120135  RH  061%=      5-min Rain = 0
KHA2 120857Z 19009KT 21/14 A3001 RMK A01 T02130135  RH  061%=      5-min Rain = 0
KHA2 120858Z 19009KT 22/14 A3001 RMK A01 T02150136  RH  061%=      5-min Rain = 0
KHA2 120859Z 19009KT 22/14 A3001 RMK A01 T02160136  RH  060%=      5-min Rain = 0
KHA2 120900Z 19009KT 22/14 A3001 RMK A01 T02170136  RH  060%=      5-min Rain = 0
KHA2 120901Z 20009KT 22/14 A3001 RMK A01 T02180137  RH  060%=      5-min Rain = 0
KHA2 120902Z 19009KT 22/14 A3001 RMK A01 T02180137  RH  060%=      5-min Rain = 0
KHA2 120903Z 19009KT 22/14 A3001 RMK A01 T02180136  RH  060%=      5-min Rain = 0
KHA2 120904Z 20009KT 22/14 A3001 RMK A01 T02180136  RH  060%=      5-min Rain = 0
KHA2 120905Z 20009KT 22/14 A3001 RMK A01 T02180136  RH  060%=      5-min Rain = 0
KHA2 120906Z 20009KT 22/14 A3001 RMK A01 T02190136  RH  059%=      5-min Rain = 0
KHA2 120907Z 20009KT 22/14 A3001 RMK A01 T02190136  RH  059%=      5-min Rain = 0
KHA2 120908Z 20009KT 22/14 A3001 RMK A01 T02190135  RH  059%=      5-min Rain = 0
KHA2 120909Z 20009KT 22/14 A3001 RMK A01 T02200136  RH  059%=      5-min Rain = 0
KHA2 120910Z 20009KT 22/14 A3001 RMK A01 T02200136  RH  059%=      5-min Rain = 0
KHA2 120911Z 20009KT 22/14 A3001 RMK A01 T02200136  RH  059%=      5-min Rain = 0
KHA2 120912Z 20009KT 22/14 A3001 RMK A01 T02200136  RH  059%=      5-min Rain = 0
KHA2 120913Z 20009KT 22/14 A3001 RMK A01 T02190135  RH  059%=      5-min Rain = 0
KHA2 120914Z 20009KT 22/14 A3001 RMK A01 T02200136  RH  059%=      5-min Rain = 0
KHA2 120915Z 20009KT 22/14 A3001 RMK A01 T02190136  RH  059%=      5-min Rain = 0
KHA2 120916Z 20009KT 22/14 A3001 RMK A01 T02190136  RH  059%=      5-min Rain = 0
KHA2 120917Z 20008KT 22/14 A3001 RMK A01 T02180135  RH  059%=      5-min Rain = 0
KHA2 120918Z 21009KT 22/13 A3001 RMK A01 T02170133  RH  059%=      5-min Rain = 0
KHA2 120919Z 21009KT 22/13 A3001 RMK A01 T02150132  RH  059%=      5-min Rain = 0
KHA2 120920Z 21009KT 21/13 A3001 RMK A01 T02130131  RH  059%=      5-min Rain = 0
KHA2 120921Z 21009KT 21/13 A3001 RMK A01 T02120131  RH  060%=      5-min Rain = 0
KHA2 120922Z 21009KT 21/13 A3001 RMK A01 T02120131  RH  060%=      5-min Rain = 0
KHA2 120923Z 21009KT 21/13 A3001 RMK A01 T02140132  RH  060%=      5-min Rain = 0
KHA2 120924Z 21010KT 21/13 A3001 RMK A01 T02140131  RH  059%=      5-min Rain = 0
KHA2 120925Z 21009KT 22/13 A3001 RMK A01 T02150131  RH  059%=      5-min Rain = 0
KHA2 120926Z 21009KT 22/13 A3001 RMK A01 T02150132  RH  059%=      5-min Rain = 0
KHA2 120927Z 21009KT 22/13 A3001 RMK A01 T02150132  RH  059%=      5-min Rain = 0
KHA2 120928Z 21009KT 21/13 A3001 RMK A01 T02140132  RH  059%=      5-min Rain = 0
KHA2 120929Z 21010KT 22/13 A3001 RMK A01 T02150132  RH  059%=      5-min Rain = 0
KHA2 120930Z 21010KT 22/13 A3001 RMK A01 T02160131  RH  059%=      5-min Rain = 0
KHA2 120931Z 21010KT 22/13 A3001 RMK A01 T02170132  RH  058%=      5-min Rain = 0
KHA2 120932Z 21010KT 22/13 A3001 RMK A01 T02180131  RH  058%=      5-min Rain = 0
KHA2 120933Z 21010KT 22/13 A3001 RMK A01 T02190131  RH  057%=      5-min Rain = 0
KHA2 120934Z 21010KT 22/13 A3001 RMK A01 T02200132  RH  057%=      5-min Rain = 0
KHA2 120935Z 21009KT 22/13 A3001 RMK A01 T02210131  RH  057%=      5-min Rain = 0
KHA2 120936Z 21010KT 22/13 A3001 RMK A01 T02220131  RH  056%=      5-min Rain = 0
KHA2 120937Z 22010KT 22/13 A3001 RMK A01 T02220131  RH  056%=      5-min Rain = 0
KHA2 120938Z 22010KT 22/13 A3001 RMK A01 T02220131  RH  056%=      5-min Rain = 0
KHA2 120939Z 21010KT 22/13 A3001 RMK A01 T02220130  RH  056%=      5-min Rain = 0
KHA2 120940Z 22011KT 22/13 A3001 RMK A01 T02230130  RH  056%=      5-min Rain = 0
KHA2 120941Z 21011KT 22/13 A3001 RMK A01 T02230130  RH  055%=      5-min Rain = 0
KHA2 120942Z 21011KT 22/13 A3001 RMK A01 T02240129  RH  055%=      5-min Rain = 0
KHA2 120943Z 21011KT 23/13 A3001 RMK A01 T02250130  RH  055%=      5-min Rain = 0
KHA2 120944Z 21011KT 22/13 A3001 RMK A01 T02240129  RH  055%=      5-min Rain = 0
KHA2 120945Z 21012KT 23/13 A3001 RMK A01 T02250129  RH  055%=      5-min Rain = 0
KHA2 120946Z 21012KT 23/13 A3001 RMK A01 T02260129  RH  054%=      5-min Rain = 0
KHA2 120947Z 21011KT 23/13 A3001 RMK A01 T02260129  RH  054%=      5-min Rain = 0
KHA2 120948Z 21012KT 23/13 A3001 RMK A01 T02260130  RH  055%=      5-min Rain = 0
KHA2 120949Z 21012KT 23/13 A3001 RMK A01 T02260129  RH  054%=      5-min Rain = 0
KHA2 120950Z 21011KT 23/13 A3001 RMK A01 T02280129  RH  054%=      5-min Rain = 0
KHA2 120951Z 21012KT 23/13 A3001 RMK A01 T02290130  RH  054%=      5-min Rain = 0
KHA2 120952Z 21012KT 23/13 A3001 RMK A01 T02290130  RH  054%=      5-min Rain = 0
KHA2 120953Z 21012KT 23/13 A3001 RMK A01 T02290130  RH  054%=      5-min Rain = 0
KHA2 120954Z 21013KT 23/13 A3001 RMK A01 T02290130  RH  053%=      5-min Rain = 0
KHA2 120955Z 21014KT 23/13 A3001 RMK A01 T02310130  RH  053%=      5-min Rain = 0
KHA2 120956Z 21015KT 23/13 A3001 RMK A01 T02320130  RH  052%=      5-min Rain = 0
KHA2 120957Z 21015KT 23/13 A3001 RMK A01 T02340130  RH  052%=      5-min Rain = 0
KHA2 120958Z 21014KT 24/13 A3001 RMK A01 T02350131  RH  052%=      5-min Rain = 0
KHA2 120959Z 22014KT 24/13 A3001 RMK A01 T02350131  RH  052%=      5-min Rain = 0
KHA2 121000Z 21014KT 24/13 A3001 RMK A01 T02350130  RH  052%=      5-min Rain = 0
KHA2 121001Z 22015KT 24/13 A3001 RMK A01 T02350130  RH  052%=      5-min Rain = 0
KHA2 121002Z 22013KT 24/13 A3001 RMK A01 T02360130  RH  052%=      5-min Rain = 0
KHA2 121003Z 22013KT 24/13 A3001 RMK A01 T02360131  RH  052%=      5-min Rain = 0
KHA2 121004Z 22013KT 24/13 A3001 RMK A01 T02350131  RH  052%=      5-min Rain = 0
KHA2 121005Z 21013KT 23/13 A3001 RMK A01 T02340130  RH  052%=      5-min Rain = 0
KHA2 121006Z 21014KT 24/13 A3001 RMK A01 T02350131  RH  052%=      5-min Rain = 0
KHA2 121007Z 21014KT 24/13 A3001 RMK A01 T02350130  RH  052%=      5-min Rain = 0
KHA2 121008Z 21014KT 24/13 A3001 RMK A01 T02350131  RH  052%=      5-min Rain = 0
KHA2 121009Z 21014KT 24/13 A3001 RMK A01 T02350130  RH  052%=      5-min Rain = 0
KHA2 121010Z 21014KT 24/13 A3001 RMK A01 T02360130  RH  051%=      5-min Rain = 0
KHA2 121011Z 21014KT 24/13 A3001 RMK A01 T02360130  RH  051%=      5-min Rain = 0
KHA2 121012Z 21015KT 24/13 A3001 RMK A01 T02360131  RH  052%=      5-min Rain = 0
KHA2 121013Z 21014KT 24/13 A3001 RMK A01 T02360130  RH  051%=      5-min Rain = 0
KHA2 121014Z 21013KT 24/13 A3001 RMK A01 T02360130  RH  051%=      5-min Rain = 0
KHA2 121015Z 22014KT 24/13 A3001 RMK A01 T02370130  RH  051%=      5-min Rain = 0
KHA2 121016Z 21013KT 24/13 A3001 RMK A01 T02370130  RH  051%=      5-min Rain = 0
KHA2 121017Z 21013KT 24/13 A3001 RMK A01 T02370130  RH  051%=      5-min Rain = 0
KHA2 121018Z 21013KT 24/13 A3001 RMK A01 T02370130  RH  051%=      5-min Rain = 0
KHA2 121019Z 21016KT 24/13 A3001 RMK A01 T02360130  RH  051%=      5-min Rain = 0
KHA2 121020Z 21014KT 24/13 A3001 RMK A01 T02380129  RH  051%=      5-min Rain = 0
KHA2 121021Z 21014KT 24/13 A3001 RMK A01 T02390130  RH  050%=      5-min Rain = 0
KHA2 121022Z 21013KT 24/13 A3001 RMK A01 T02380129  RH  050%=      5-min Rain = 0
KHA2 121023Z 21013KT 24/13 A3001 RMK A01 T02380129  RH  050%=      5-min Rain = 0
KHA2 121024Z 21014KT 24/13 A3001 RMK A01 T02380130  RH  051%=      5-min Rain = 0
KHA2 121025Z 21014KT 24/13 A3001 RMK A01 T02380130  RH  051%=      5-min Rain = 0
KHA2 121026Z 21013KT 24/13 A3001 RMK A01 T02380129  RH  050%=      5-min Rain = 0
KHA2 121027Z 21013KT 24/13 A3001 RMK A01 T02380130  RH  051%=      5-min Rain = 0
KHA2 121028Z 21015KT 24/13 A3001 RMK A01 T02380129  RH  051%=      5-min Rain = 0
KHA2 121029Z 21013KT 24/13 A3001 RMK A01 T02370129  RH  051%=      5-min Rain = 0
KHA2 121030Z 21014KT 24/13 A3001 RMK A01 T02380129  RH  051%=      5-min Rain = 0
KHA2 121031Z 21015KT 24/13 A3001 RMK A01 T02380128  RH  050%=      5-min Rain = 0
KHA2 121032Z 21014KT 24/13 A3001 RMK A01 T02380129  RH  050%=      5-min Rain = 0
KHA2 121033Z 21013KT 24/13 A3001 RMK A01 T02380129  RH  050%=      5-min Rain = 0
KHA2 121034Z 21013KT 24/13 A3001 RMK A01 T02380129  RH  050%=      5-min Rain = 0
KHA2 121035Z 21013KT 24/13 A3001 RMK A01 T02380128  RH  050%=      5-min Rain = 0
KHA2 121036Z 21013KT 24/13 A3001 RMK A01 T02380128  RH  050%=      5-min Rain = 0
KHA2 121037Z 21013KT 24/13 A3001 RMK A01 T02380129  RH  051%=      5-min Rain = 0
KHA2 121038Z 21013KT 24/13 A3001 RMK A01 T02370129  RH  051%=      5-min Rain = 0
KHA2 121039Z 21013KT 24/13 A3001 RMK A01 T02370129  RH  051%=      5-min Rain = 0
KHA2 121040Z 21013KT 24/13 A3001 RMK A01 T02370128  RH  050%=      5-min Rain = 0
KHA2 121041Z 21014KT 24/13 A3001 RMK A01 T02370128  RH  050%=      5-min Rain = 0
KHA2 121042Z 21013KT 24/13 A3001 RMK A01 T02380128  RH  050%=      5-min Rain = 0
KHA2 121043Z 21013KT 24/13 A3001 RMK A01 T02370128  RH  050%=      5-min Rain = 0
KHA2 121044Z 21014KT 24/13 A3001 RMK A01 T02370128  RH  050%=      5-min Rain = 0
KHA2 121045Z 21013KT 24/13 A3001 RMK A01 T02370128  RH  050%=      5-min Rain = 0
KHA2 121046Z 21014KT 24/13 A3001 RMK A01 T02380128  RH  050%=      5-min Rain = 0
KHA2 121047Z 20013KT 24/13 A3001 RMK A01 T02380127  RH  050%=      5-min Rain = 0
KHA2 121048Z 20014KT 24/13 A3001 RMK A01 T02370129  RH  051%=      5-min Rain = 0
KHA2 121049Z 20014KT 24/13 A3001 RMK A01 T02360128  RH  051%=      5-min Rain = 0
KHA2 121050Z 20013G18KT 24/13 A3001 RMK A01 T02360128  RH  051%=      5-min Rain = 0
KHA2 121051Z 20012KT 24/13 A3001 RMK A01 T02360128  RH  051%=      5-min Rain = 0
KHA2 121052Z 20012KT 24/13 A3001 RMK A01 T02350128  RH  051%=      5-min Rain = 0
KHA2 121053Z 20014KT 24/13 A3001 RMK A01 T02350128  RH  051%=      5-min Rain = 0
KHA2 121054Z 20013KT 24/13 A3001 RMK A01 T02350128  RH  051%=      5-min Rain = 0
KHA2 121055Z 20012KT 24/13 A3001 RMK A01 T02350128  RH  051%=      5-min Rain = 0
KHA2 121056Z 20012KT 23/13 A3001 RMK A01 T02340128  RH  051%=      5-min Rain = 0
KHA2 121057Z 20012KT 23/13 A3001 RMK A01 T02330128  RH  052%=      5-min Rain = 0
KHA2 121058Z 20013KT 23/13 A3001 RMK A01 T02320128  RH  052%=      5-min Rain = 0
KHA2 121059Z 20012KT 23/13 A3001 RMK A01 T02320128  RH  052%=      5-min Rain = 0
KHA2 121100Z 20012KT 23/13 A3001 RMK A01 T02310128  RH  052%=      5-min Rain = 0
KHA2 121101Z 20012KT 23/13 A3001 RMK A01 T02310129  RH  053%=      5-min Rain = 0
KHA2 121102Z 20012KT 23/13 A3001 RMK A01 T02300129  RH  053%=      5-min Rain = 0
KHA2 121103Z 20011KT 23/13 A3001 RMK A01 T02290129  RH  053%=      5-min Rain = 0
KHA2 121104Z 20012KT 23/13 A3002 RMK A01 T02290129  RH  053%=      5-min Rain = 0
KHA2 121105Z 21011KT 23/13 A3002 RMK A01 T02280128  RH  053%=      5-min Rain = 0
KHA2 121106Z 21010KT 23/13 A3002 RMK A01 T02280129  RH  054%=      5-min Rain = 0
KHA2 121107Z 21010KT 23/13 A3002 RMK A01 T02270129  RH  054%=      5-min Rain = 0
KHA2 121108Z 20010KT 23/13 A3002 RMK A01 T02250128  RH  054%=      5-min Rain = 0
KHA2 121109Z 20010KT 23/13 A3002 RMK A01 T02250128  RH  054%=      5-min Rain = 0
KHA2 121110Z 21010KT 22/13 A3002 RMK A01 T02240129  RH  055%=      5-min Rain = 0
KHA2 121111Z 21010KT 22/13 A3002 RMK A01 T02230128  RH  055%=      5-min Rain = 0
KHA2 121112Z 21010KT 22/13 A3002 RMK A01 T02230128  RH  055%=      5-min Rain = 0
KHA2 121113Z 21010KT 22/13 A3002 RMK A01 T02230128  RH  055%=      5-min Rain = 0
KHA2 121114Z 21011KT 22/13 A3002 RMK A01 T02230128  RH  055%=      5-min Rain = 0
KHA2 121115Z 21011KT 22/13 A3002 RMK A01 T02230128  RH  055%=      5-min Rain = 0
KHA2 121116Z 21011KT 22/13 A3002 RMK A01 T02230128  RH  055%=      5-min Rain = 0
KHA2 121117Z 21011KT 22/13 A3002 RMK A01 T02230128  RH  055%=      5-min Rain = 0
KHA2 121118Z 22011KT 22/13 A3002 RMK A01 T02230128  RH  055%=      5-min Rain = 0
KHA2 121119Z 21011KT 22/13 A3002 RMK A01 T02220128  RH  055%=      5-min Rain = 0
KHA2 121120Z 22011KT 22/13 A3002 RMK A01 T02230128  RH  055%=      5-min Rain = 0
KHA2 121121Z 22011KT 22/13 A3002 RMK A01 T02230128  RH  055%=      5-min Rain = 0
KHA2 121122Z 22012KT 22/13 A3002 RMK A01 T02230128  RH  055%=      5-min Rain = 0
KHA2 121123Z 21012KT 22/13 A3002 RMK A01 T02230128  RH  055%=      5-min Rain = 0
KHA2 121124Z 21012KT 22/13 A3002 RMK A01 T02230128  RH  055%=      5-min Rain = 0
KHA2 121125Z 21012KT 22/13 A3002 RMK A01 T02240128  RH  054%=      5-min Rain = 0
KHA2 121126Z 21012KT 23/13 A3002 RMK A01 T02250128  RH  054%=      5-min Rain = 0
KHA2 121127Z 22012KT 23/13 A3002 RMK A01 T02250128  RH  054%=      5-min Rain = 0
KHA2 121128Z 21012KT 22/13 A3002 RMK A01 T02240129  RH  055%=      5-min Rain = 0
KHA2 121129Z 22011KT 22/13 A3002 RMK A01 T02240128  RH  054%=      5-min Rain = 0
KHA2 121130Z 22011KT 22/13 A3002 RMK A01 T02240128  RH  054%=      5-min Rain = 0
KHA2 121131Z 22011KT 22/13 A3002 RMK A01 T02240128  RH  055%=      5-min Rain = 0
KHA2 121132Z 22012KT 22/13 A3002 RMK A01 T02230128  RH  055%=      5-min Rain = 0
KHA2 121133Z 22012KT 22/13 A3002 RMK A01 T02230128  RH  055%=      5-min Rain = 0
KHA2 121134Z 22012KT 22/13 A3002 RMK A01 T02230128  RH  055%=      5-min Rain = 0
KHA2 121135Z 22012KT 22/13 A3002 RMK A01 T02230127  RH  055%=      5-min Rain = 0
KHA2 121136Z 21013KT 22/13 A3002 RMK A01 T02230127  RH  055%=      5-min Rain = 0
KHA2 121137Z 22012KT 22/13 A3002 RMK A01 T02240127  RH  054%=      5-min Rain = 0
KHA2 121138Z 22012KT 23/13 A3002 RMK A01 T02250128  RH  054%=      5-min Rain = 0
KHA2 121139Z 22012KT 22/13 A3002 RMK A01 T02240128  RH  055%=      5-min Rain = 0
KHA2 121140Z 22012KT 22/13 A3002 RMK A01 T02240129  RH  055%=      5-min Rain = 0
KHA2 121141Z 22012KT 22/13 A3002 RMK A01 T02240129  RH  055%=      5-min Rain = 0
KHA2 121142Z 22012KT 22/13 A3002 RMK A01 T02240129  RH  055%=      5-min Rain = 0
KHA2 121143Z 23012KT 22/13 A3002 RMK A01 T02240129  RH  055%=      5-min Rain = 0
KHA2 121144Z 22011KT 22/13 A3002 RMK A01 T02230129  RH  055%=      5-min Rain = 0
KHA2 121145Z 22012KT 22/13 A3002 RMK A01 T02240129  RH  055%=      5-min Rain = 0
KHA2 121146Z 22012KT 22/13 A3002 RMK A01 T02240128  RH  055%=      5-min Rain = 0
KHA2 121147Z 23012KT 22/13 A3002 RMK A01 T02240128  RH  054%=      5-min Rain = 0
KHA2 121148Z 22011KT 23/13 A3002 RMK A01 T02250128  RH  054%=      5-min Rain = 0
KHA2 121149Z 22012KT 23/13 A3002 RMK A01 T02250128  RH  054%=      5-min Rain = 0
KHA2 121150Z 22012KT 23/13 A3002 RMK A01 T02250128  RH  054%=      5-min Rain = 0
KHA2 121151Z 22011KT 22/13 A3002 RMK A01 T02240128  RH  054%=      5-min Rain = 0
KHA2 121152Z 22012KT 22/13 A3002 RMK A01 T02240128  RH  055%=      5-min Rain = 0
KHA2 121153Z 22012KT 22/13 A3002 RMK A01 T02230129  RH  055%=      5-min Rain = 0
KHA2 121154Z 22013KT 22/13 A3002 RMK A01 T02230128  RH  055%=      5-min Rain = 0
KHA2 121155Z 21012KT 22/13 A3002 RMK A01 T02240128  RH  055%=      5-min Rain = 0
KHA2 121156Z 22012KT 22/13 A3002 RMK A01 T02240129  RH  055%=      5-min Rain = 0
KHA2 121157Z 22012KT 22/13 A3002 RMK A01 T02230129  RH  055%=      5-min Rain = 0
KHA2 121158Z 22011KT 22/13 A3003 RMK A01 T02230128  RH  055%=      5-min Rain = 0
KHA2 121159Z 22012KT 22/13 A3003 RMK A01 T02220128  RH  055%=      5-min Rain = 0
KHA2 121200Z 22012KT 22/13 A3003 RMK A01 T02230128  RH  055%=      5-min Rain = 0
KHA2 121201Z 22010KT 22/13 A3003 RMK A01 T02220128  RH  055%=      5-min Rain = 0
KHA2 121202Z 22011KT 22/13 A3003 RMK A01 T02220129  RH  055%=      5-min Rain = 0
KHA2 121203Z 22010KT 22/13 A3003 RMK A01 T02220129  RH  055%=      5-min Rain = 0
KHA2 121204Z 22010KT 22/13 A3003 RMK A01 T02210128  RH  056%=      5-min Rain = 0
KHA2 121205Z 21011KT 22/13 A3003 RMK A01 T02210129  RH  056%=      5-min Rain = 0
KHA2 121206Z 22010KT 22/13 A3003 RMK A01 T02200129  RH  056%=      5-min Rain = 0
KHA2 121207Z 22011KT 22/13 A3003 RMK A01 T02200128  RH  056%=      5-min Rain = 0
KHA2 121208Z 22011KT 22/13 A3003 RMK A01 T02200128  RH  056%=      5-min Rain = 0
KHA2 121209Z 22011KT 22/13 A3003 RMK A01 T02210128  RH  056%=      5-min Rain = 0
KHA2 121210Z 22011KT 22/13 A3003 RMK A01 T02210128  RH  056%=      5-min Rain = 0
KHA2 121211Z 22011KT 22/13 A3003 RMK A01 T02210129  RH  056%=      5-min Rain = 0
KHA2 121212Z 22011KT 22/13 A3003 RMK A01 T02210129  RH  056%=      5-min Rain = 0
KHA2 121213Z 22011KT 22/13 A3003 RMK A01 T02210129  RH  056%=      5-min Rain = 0
KHA2 121214Z 22011KT 22/13 A3003 RMK A01 T02210129  RH  056%=      5-min Rain = 0
KHA2 121215Z 21011KT 22/13 A3003 RMK A01 T02210130  RH  056%=      5-min Rain = 0
KHA2 121216Z 22011KT 22/13 A3003 RMK A01 T02210130  RH  056%=      5-min Rain = 0
KHA2 121217Z 22011KT 22/13 A3003 RMK A01 T02210130  RH  056%=      5-min Rain = 0
KHA2 121218Z 22011KT 22/13 A3003 RMK A01 T02210130  RH  056%=      5-min Rain = 0
KHA2 121219Z 22011KT 22/13 A3003 RMK A01 T02220130  RH  056%=      5-min Rain = 0
KHA2 121220Z 22011KT 22/13 A3003 RMK A01 T02220130  RH  056%=      5-min Rain = 0
KHA2 121221Z 22012KT 22/13 A3003 RMK A01 T02220131  RH  056%=      5-min Rain = 0
KHA2 121222Z 22011KT 22/13 A3003 RMK A01 T02230130  RH  056%=      5-min Rain = 0
KHA2 121223Z 22012KT 22/13 A3003 RMK A01 T02240131  RH  056%=      5-min Rain = 0
KHA2 121224Z 23011KT 22/13 A3003 RMK A01 T02240131  RH  056%=      5-min Rain = 0
KHA2 121225Z 22012KT 22/13 A3003 RMK A01 T02240131  RH  055%=      5-min Rain = 0
KHA2 121226Z 22012KT 23/13 A3003 RMK A01 T02260131  RH  055%=      5-min Rain = 0
KHA2 121227Z 22012KT 23/13 A3003 RMK A01 T02270131  RH  055%=      5-min Rain = 0
KHA2 121228Z 22012KT 23/13 A3003 RMK A01 T02270131  RH  055%=      5-min Rain = 0
KHA2 121229Z 23011KT 23/13 A3004 RMK A01 T02280131  RH  054%=      5-min Rain = 0
KHA2 121230Z 22011KT 23/13 A3004 RMK A01 T02280132  RH  055%=      5-min Rain = 0
KHA2 121231Z 22013KT 23/13 A3004 RMK A01 T02280131  RH  054%=      5-min Rain = 0
KHA2 121232Z 22013KT 23/13 A3004 RMK A01 T02290131  RH  054%=      5-min Rain = 0
KHA2 121233Z 23012KT 23/13 A3004 RMK A01 T02300132  RH  054%=      5-min Rain = 0
KHA2 121234Z 23012KT 23/13 A3004 RMK A01 T02300131  RH  054%=      5-min Rain = 0
KHA2 121235Z 23013KT 23/13 A3004 RMK A01 T02300131  RH  053%=      5-min Rain = 0
KHA2 121236Z 22012KT 23/13 A3004 RMK A01 T02310132  RH  053%=      5-min Rain = 0
KHA2 121237Z 22014KT 23/13 A3004 RMK A01 T02320131  RH  053%=      5-min Rain = 0
KHA2 121238Z 22013KT 23/13 A3004 RMK A01 T02330131  RH  053%=      5-min Rain = 0
KHA2 121239Z 23012KT 23/13 A3004 RMK A01 T02330133  RH  053%=      5-min Rain = 0
KHA2 121240Z 22012KT 23/13 A3004 RMK A01 T02340134  RH  053%=      5-min Rain = 0
KHA2 121241Z 22012KT 23/13 A3004 RMK A01 T02330133  RH  053%=      5-min Rain = 0
KHA2 121242Z 23013KT 23/13 A3004 RMK A01 T02340133  RH  053%=      5-min Rain = 0
KHA2 121243Z 23012KT 24/13 A3004 RMK A01 T02350134  RH  053%=      5-min Rain = 0
KHA2 121244Z 22011KT 24/14 A3004 RMK A01 T02360135  RH  053%=      5-min Rain = 0
KHA2 121245Z 22014KT 24/14 A3004 RMK A01 T02360135  RH  053%=      5-min Rain = 0
KHA2 121246Z 22012KT 24/13 A3004 RMK A01 T02370134  RH  053%=      5-min Rain = 0
KHA2 121247Z 22012G17KT 24/14 A3004 RMK A01 T02380135  RH  053%=      5-min Rain = 0
KHA2 121248Z 22015KT 24/14 A3004 RMK A01 T02390135  RH  052%=      5-min Rain = 0
KHA2 121249Z 22014KT 24/14 A3004 RMK A01 T02400135  RH  052%=      5-min Rain = 0
KHA2 121250Z 22013KT 24/14 A3004 RMK A01 T02400135  RH  052%=      5-min Rain = 0
KHA2 121251Z 22014KT 24/14 A3004 RMK A01 T02410136  RH  052%=      5-min Rain = 0
KHA2 121252Z 22013KT 24/14 A3004 RMK A01 T02420136  RH  052%=      5-min Rain = 0
KHA2 121253Z 22012KT 24/14 A3004 RMK A01 T02420137  RH  052%=      5-min Rain = 0
KHA2 121254Z 22013KT 24/14 A3004 RMK A01 T02430138  RH  052%=      5-min Rain = 0
KHA2 121255Z 22015KT 24/14 A3004 RMK A01 T02430137  RH  051%=      5-min Rain = 0
KHA2 121256Z 22014KT 24/14 A3004 RMK A01 T02440137  RH  051%=      5-min Rain = 0
KHA2 121257Z 23013KT 24/14 A3004 RMK A01 T02440138  RH  051%=      5-min Rain = 0
KHA2 121258Z 23011KT 25/14 A3004 RMK A01 T02450138  RH  051%=      5-min Rain = 0
KHA2 121259Z 23012G17KT 25/14 A3004 RMK A01 T02450138  RH  051%=      5-min Rain = 0
KHA2 121300Z 22015G20KT 25/14 A3004 RMK A01 T02460138  RH  051%=      5-min Rain = 0
KHA2 121301Z 22017KT 25/14 A3004 RMK A01 T02460136  RH  050%=      5-min Rain = 0
KHA2 121302Z 22018KT 25/14 A3004 RMK A01 T02450136  RH  051%=      5-min Rain = 0
KHA2 121303Z 22018KT 25/14 A3003 RMK A01 T02450135  RH  050%=      5-min Rain = 0
KHA2 121304Z 22017KT 25/14 A3003 RMK A01 T02460136  RH  050%=      5-min Rain = 0
KHA2 121305Z 22017KT 25/14 A3003 RMK A01 T02460136  RH  050%=      5-min Rain = 0
KHA2 121306Z 22015KT 25/14 A3003 RMK A01 T02470136  RH  050%=      5-min Rain = 0
KHA2 121307Z 22016KT 25/14 A3003 RMK A01 T02470137  RH  050%=      5-min Rain = 0
KHA2 121308Z 22016KT 25/14 A3003 RMK A01 T02470136  RH  050%=      5-min Rain = 0
KHA2 121309Z 23017KT 25/14 A3003 RMK A01 T02470137  RH  050%=      5-min Rain = 0
KHA2 121310Z 23017KT 25/14 A3003 RMK A01 T02470136  RH  050%=      5-min Rain = 0
KHA2 121311Z 22015KT 25/14 A3003 RMK A01 T02470136  RH  050%=      5-min Rain = 0
KHA2 121312Z 23015KT 25/14 A3003 RMK A01 T02470137  RH  050%=      5-min Rain = 0
KHA2 121313Z 23014KT 25/14 A3003 RMK A01 T02460137  RH  050%=      5-min Rain = 0
KHA2 121314Z 22017KT 25/14 A3003 RMK A01 T02460137  RH  051%=      5-min Rain = 0
KHA2 121315Z 22016KT 25/14 A3003 RMK A01 T02460137  RH  051%=      5-min Rain = 0
KHA2 121316Z 23015KT 25/14 A3003 RMK A01 T02460137  RH  051%=      5-min Rain = 0
KHA2 121317Z 22014KT 25/14 A3003 RMK A01 T02460137  RH  051%=      5-min Rain = 0
KHA2 121318Z 23014KT 25/14 A3003 RMK A01 T02460138  RH  051%=      5-min Rain = 0
KHA2 121319Z 23017KT 25/14 A3003 RMK A01 T02470137  RH  051%=      5-min Rain = 0
KHA2 121320Z 23017KT 25/14 A3003 RMK A01 T02470136  RH  050%=      5-min Rain = 0
KHA2 121321Z 23013KT 25/14 A3003 RMK A01 T02470138  RH  051%=      5-min Rain = 0
KHA2 121322Z 23017KT 25/14 A3003 RMK A01 T02470138  RH  051%=      5-min Rain = 0
KHA2 121323Z 22014KT 25/14 A3003 RMK A01 T02470138  RH  051%=      5-min Rain = 0
KHA2 121324Z 22016KT 25/14 A3003 RMK A01 T02470138  RH  050%=      5-min Rain = 0
KHA2 121325Z 22017KT 25/14 A3003 RMK A01 T02480137  RH  050%=      5-min Rain = 0
KHA2 121326Z 23018KT 25/14 A3003 RMK A01 T02480136  RH  050%=      5-min Rain = 0
KHA2 121327Z 23018KT 25/14 A3003 RMK A01 T02470137  RH  050%=      5-min Rain = 0
KHA2 121328Z 22016KT 25/14 A3003 RMK A01 T02480137  RH  050%=      5-min Rain = 0
KHA2 121329Z 22014KT 25/14 A3003 RMK A01 T02480138  RH  050%=      5-min Rain = 0
KHA2 121330Z 22015KT 25/14 A3003 RMK A01 T02490139  RH  050%=      5-min Rain = 0
KHA2 121331Z 22014KT 25/14 A3003 RMK A01 T02490138  RH  050%=      5-min Rain = 0
KHA2 121332Z 22014KT 25/14 A3003 RMK A01 T02500139  RH  050%=      5-min Rain = 0
KHA2 121333Z 21013KT 25/14 A3003 RMK A01 T02510139  RH  050%=      5-min Rain = 0
KHA2 121334Z 21015KT 25/14 A3003 RMK A01 T02510140  RH  050%=      5-min Rain = 0
KHA2 121335Z 22017KT 25/14 A3003 RMK A01 T02520138  RH  049%=      5-min Rain = 0
KHA2 121336Z 22015G20KT 25/14 A3003 RMK A01 T02530138  RH  049%=      5-min Rain = 0
KHA2 121337Z 21019KT 25/14 A3003 RMK A01 T02530138  RH  049%=      5-min Rain = 0
KHA2 121338Z 21018KT 25/14 A3003 RMK A01 T02530137  RH  049%=      5-min Rain = 0
KHA2 121339Z 21016KT 25/14 A3003 RMK A01 T02530138  RH  049%=      5-min Rain = 0
KHA2 121340Z 22019KT 25/14 A3003 RMK A01 T02530137  RH  049%=      5-min Rain = 0
KHA2 121341Z 21018KT 25/14 A3003 RMK A01 T02530137  RH  048%=      5-min Rain = 0
KHA2 121342Z 21017G22KT 25/14 A3003 RMK A01 T02540137  RH  048%=      5-min Rain = 0
KHA2 121343Z 22018KT 25/14 A3003 RMK A01 T02540137  RH  048%=      5-min Rain = 0
KHA2 121344Z 22019KT 25/14 A3003 RMK A01 T02540137  RH  048%=      5-min Rain = 0
KHA2 121345Z 22018KT 26/14 A3003 RMK A01 T02550137  RH  048%=      5-min Rain = 0
KHA2 121346Z 22016KT 26/14 A3003 RMK A01 T02550138  RH  048%=      5-min Rain = 0
KHA2 121347Z 22017KT 26/14 A3003 RMK A01 T02560138  RH  048%=      5-min Rain = 0
KHA2 121348Z 22018KT 26/14 A3003 RMK A01 T02570138  RH  048%=      5-min Rain = 0
KHA2 121349Z 21019KT 26/14 A3003 RMK A01 T02580139  RH  048%=      5-min Rain = 0
KHA2 121350Z 22019KT 26/14 A3003 RMK A01 T02590138  RH  047%=      5-min Rain = 0
KHA2 121351Z 22016KT 26/14 A3003 RMK A01 T02590138  RH  047%=      5-min Rain = 0
KHA2 121352Z 22017KT 26/14 A3003 RMK A01 T02590139  RH  047%=      5-min Rain = 0
KHA2 121353Z 22016KT 26/14 A3003 RMK A01 T02600139  RH  047%=      5-min Rain = 0
KHA2 121354Z 22015KT 26/14 A3003 RMK A01 T02610140  RH  047%=      5-min Rain = 0
KHA2 121355Z 22016KT 26/14 A3003 RMK A01 T02620141  RH  047%=      5-min Rain = 0
KHA2 121356Z 22018KT 26/14 A3003 RMK A01 T02630141  RH  047%=      5-min Rain = 0
KHA2 121357Z 22018KT 26/14 A3003 RMK A01 T02640140  RH  047%=      5-min Rain = 0
KHA2 121358Z 22018KT 26/14 A3003 RMK A01 T02640140  RH  046%=      5-min Rain = 0
KHA2 121359Z 22016KT 26/14 A3003 RMK A01 T02640141  RH  047%=      5-min Rain = 0
KHA2 121400Z 22017KT 26/14 A3002 RMK A01 T02640141  RH  047%=      5-min Rain = 0
KHA2 121401Z 22017KT 26/14 A3002 RMK A01 T02640140  RH  046%=      5-min Rain = 0
KHA2 121402Z 22019KT 26/14 A3002 RMK A01 T02640140  RH  046%=      5-min Rain = 0
KHA2 121403Z 22020KT 26/14 A3002 RMK A01 T02620138  RH  046%=      5-min Rain = 0
KHA2 121404Z 22017KT 26/14 A3002 RMK A01 T02600138  RH  047%=      5-min Rain = 0
KHA2 121405Z 22016KT 26/14 A3003 RMK A01 T02590139  RH  047%=      5-min Rain = 0
KHA2 121406Z 23017KT 26/14 A3003 RMK A01 T02590140  RH  048%=      5-min Rain = 0
KHA2 121407Z 23019KT 26/14 A3002 RMK A01 T02590139  RH  048%=      5-min Rain = 0
KHA2 121408Z 22020KT 26/14 A3002 RMK A01 T02590138  RH  047%=      5-min Rain = 0
KHA2 121409Z 22020KT 26/14 A3002 RMK A01 T02580138  RH  048%=      5-min Rain = 0
KHA2 121410Z 22020KT 26/14 A3003 RMK A01 T02570137  RH  047%=      5-min Rain = 0
KHA2 121411Z 23020KT 26/14 A3002 RMK A01 T02560137  RH  048%=      5-min Rain = 0
KHA2 121412Z 23018KT 26/14 A3003 RMK A01 T02560137  RH  048%=      5-min Rain = 0
KHA2 121413Z 22016KT 26/14 A3003 RMK A01 T02550137  RH  048%=      5-min Rain = 0
KHA2 121414Z 23016KT 25/14 A3003 RMK A01 T02540137  RH  048%=      5-min Rain = 0
KHA2 121415Z 23015KT 25/14 A3003 RMK A01 T02540137  RH  048%=      5-min Rain = 0
KHA2 121416Z 22017KT 25/14 A3003 RMK A01 T02530138  RH  049%=      5-min Rain = 0
KHA2 121417Z 22017KT 25/14 A3003 RMK A01 T02530138  RH  049%=      5-min Rain = 0
KHA2 121418Z 22016KT 25/14 A3003 RMK A01 T02530138  RH  049%=      5-min Rain = 0
KHA2 121419Z 23014KT 26/14 A3003 RMK A01 T02550139  RH  049%=      5-min Rain = 0
KHA2 121420Z 23013KT 26/14 A3003 RMK A01 T02570140  RH  048%=      5-min Rain = 0
KHA2 121421Z 23014KT 26/14 A3003 RMK A01 T02580140  RH  048%=      5-min Rain = 0
KHA2 121422Z 23013KT 26/14 A3003 RMK A01 T02590139  RH  048%=      5-min Rain = 0
KHA2 121423Z 23013KT 26/14 A3003 RMK A01 T02590141  RH  048%=      5-min Rain = 0
KHA2 121424Z 23015KT 26/14 A3003 RMK A01 T02580140  RH  048%=      5-min Rain = 0
KHA2 121425Z 23012KT 26/14 A3003 RMK A01 T02560140  RH  049%=      5-min Rain = 0
KHA2 121426Z 22013KT 25/14 A3003 RMK A01 T02540140  RH  049%=      5-min Rain = 0
KHA2 121427Z 22014KT 25/14 A3003 RMK A01 T02530139  RH  049%=      5-min Rain = 0
KHA2 121428Z 22011KT 25/14 A3003 RMK A01 T02520140  RH  050%=      5-min Rain = 0
KHA2 121429Z 22013KT 25/14 A3003 RMK A01 T02510139  RH  050%=      5-min Rain = 0
KHA2 121430Z 22012KT 25/14 A3003 RMK A01 T02500139  RH  050%=      5-min Rain = 0
KHA2 121431Z 22011KT 25/14 A3003 RMK A01 T02500140  RH  050%=      5-min Rain = 0
KHA2 121432Z 22011KT 25/14 A3003 RMK A01 T02510141  RH  050%=      5-min Rain = 0
KHA2 121433Z 22012KT 26/14 A3004 RMK A01 T02550142  RH  050%=      5-min Rain = 0
KHA2 121434Z 22010KT 26/14 A3004 RMK A01 T02570144  RH  050%=      5-min Rain = 0
KHA2 121435Z 22011KT 26/14 A3004 RMK A01 T02600144  RH  049%=      5-min Rain = 0
KHA2 121436Z 23013G18KT 26/14 A3004 RMK A01 T02630144  RH  048%=      5-min Rain = 0
KHA2 121437Z 22013G18KT 27/15 A3004 RMK A01 T02680146  RH  047%=      5-min Rain = 0
KHA2 121438Z 22016G21KT 27/15 A3004 RMK A01 T02720147  RH  046%=      5-min Rain = 0
KHA2 121439Z 22020KT 28/15 A3004 RMK A01 T02770146  RH  045%=      5-min Rain = 0
KHA2 121440Z 23020KT 28/15 A3004 RMK A01 T02790145  RH  044%=      5-min Rain = 0
KHA2 121441Z 23021KT 28/14 A3004 RMK A01 T02800144  RH  043%=      5-min Rain = 0
KHA2 121442Z 23022KT 28/14 A3004 RMK A01 T02810142  RH  043%=      5-min Rain = 0
KHA2 121443Z 23020KT 28/14 A3004 RMK A01 T02810142  RH  043%=      5-min Rain = 0
KHA2 121444Z 23021KT 28/14 A3004 RMK A01 T02820143  RH  043%=      5-min Rain = 0
KHA2 121445Z 23022KT 28/14 A3004 RMK A01 T02830143  RH  042%=      5-min Rain = 0
KHA2 121446Z 23018KT 28/14 A3004 RMK A01 T02830142  RH  042%=      5-min Rain = 0
KHA2 121447Z 23021KT 29/14 A3004 RMK A01 T02850144  RH  042%=      5-min Rain = 0
KHA2 121448Z 23019KT 29/14 A3004 RMK A01 T02850144  RH  042%=      5-min Rain = 0
KHA2 121449Z 22018KT 29/15 A3004 RMK A01 T02850146  RH  043%=      5-min Rain = 0
KHA2 121450Z 23019KT 29/15 A3004 RMK A01 T02870146  RH  042%=      5-min Rain = 0
KHA2 121451Z 23017KT 29/15 A3004 RMK A01 T02860147  RH  042%=      5-min Rain = 0
KHA2 121452Z 23018KT 29/15 A3003 RMK A01 T02880148  RH  043%=      5-min Rain = 0
KHA2 121453Z 23021KT 29/15 A3003 RMK A01 T02890147  RH  042%=      5-min Rain = 0
KHA2 121454Z 23020KT 29/15 A3003 RMK A01 T02880146  RH  042%=      5-min Rain = 0
KHA2 121455Z 23020KT 29/15 A3003 RMK A01 T02880147  RH  042%=      5-min Rain = 0
KHA2 121456Z 22020KT 29/15 A3003 RMK A01 T02870146  RH  042%=      5-min Rain = 0
KHA2 121457Z 23017KT 29/15 A3004 RMK A01 T02880147  RH  042%=      5-min Rain = 0
KHA2 121458Z 23019G24KT 29/15 A3004 RMK A01 T02900148  RH  042%=      5-min Rain = 0
KHA2 121459Z 23021KT 29/15 A3003 RMK A01 T02900146  RH  041%=      5-min Rain = 0
KHA2 121500Z 22020KT 29/15 A3003 RMK A01 T02900146  RH  041%=      5-min Rain = 0
KHA2 121501Z 22022KT 29/15 A3003 RMK A01 T02900145  RH  041%=      5-min Rain = 0
KHA2 121502Z 22021KT 29/14 A3003 RMK A01 T02910143  RH  041%=      5-min Rain = 0
KHA2 121503Z 23023KT 29/14 A3003 RMK A01 T02910144  RH  041%=      5-min Rain = 0
KHA2 121504Z 23020KT 29/14 A3003 RMK A01 T02910144  RH  041%=      5-min Rain = 0
KHA2 121505Z 23020KT 29/14 A3003 RMK A01 T02900143  RH  041%=      5-min Rain = 0
KHA2 121506Z 22019G24KT 29/14 A3003 RMK A01 T02890144  RH  041%=      5-min Rain = 0
KHA2 121507Z 22021KT 29/14 A3003 RMK A01 T02890144  RH  041%=      5-min Rain = 0
KHA2 121508Z 22020KT 29/14 A3003 RMK A01 T02900144  RH  041%=      5-min Rain = 0
KHA2 121509Z 23019KT 29/14 A3003 RMK A01 T02910144  RH  041%=      5-min Rain = 0
KHA2 121510Z 24019G25KT 29/15 A3003 RMK A01 T02930145  RH  040%=      5-min Rain = 0
KHA2 121511Z 24016KT 29/15 A3003 RMK A01 T02940146  RH  040%=      5-min Rain = 0
KHA2 121512Z 23021KT 30/15 A3003 RMK A01 T02960146  RH  040%=      5-min Rain = 0
KHA2 121513Z 23017KT 30/15 A3003 RMK A01 T02960146  RH  040%=      5-min Rain = 0
KHA2 121514Z 24019KT 30/15 A3003 RMK A01 T02980146  RH  040%=      5-min Rain = 0
KHA2 121515Z 23021KT 30/15 A3003 RMK A01 T02980145  RH  039%=      5-min Rain = 0
KHA2 121516Z 23019KT 30/14 A3003 RMK A01 T02960144  RH  039%=      5-min Rain = 0
KHA2 121517Z 23017KT 30/14 A3003 RMK A01 T02950143  RH  039%=      5-min Rain = 0
KHA2 121518Z 23017KT 30/15 A3003 RMK A01 T02960146  RH  040%=      5-min Rain = 0
KHA2 121519Z 22022KT 30/14 A3003 RMK A01 T02980144  RH  039%=      5-min Rain = 0
KHA2 121520Z 23020KT 30/14 A3003 RMK A01 T02980144  RH  039%=      5-min Rain = 0
KHA2 121521Z 22019KT 30/14 A3003 RMK A01 T02970143  RH  039%=      5-min Rain = 0
KHA2 121522Z 23021KT 30/14 A3003 RMK A01 T02970144  RH  039%=      5-min Rain = 0
KHA2 121523Z 22022KT 30/14 A3003 RMK A01 T02970141  RH  039%=      5-min Rain = 0
KHA2 121524Z 23021KT 30/14 A3003 RMK A01 T02970142  RH  039%=      5-min Rain = 0
KHA2 121525Z 23019KT 30/14 A3003 RMK A01 T02980144  RH  039%=      5-min Rain = 0
KHA2 121526Z 23019KT 30/14 A3003 RMK A01 T03000143  RH  039%=      5-min Rain = 0
KHA2 121527Z 23017KT 30/15 A3003 RMK A01 T03010145  RH  039%=      5-min Rain = 0
KHA2 121528Z 24017KT 30/15 A3003 RMK A01 T03020145  RH  039%=      5-min Rain = 0
KHA2 121529Z 24018KT 31/15 A3003 RMK A01 T03050147  RH  038%=      5-min Rain = 0
KHA2 121530Z 24020KT 31/14 A3003 RMK A01 T03050143  RH  037%=      5-min Rain = 0
KHA2 121531Z 23020KT 30/15 A3003 RMK A01 T03020145  RH  039%=      5-min Rain = 0
KHA2 121532Z 23019KT 30/14 A3003 RMK A01 T03020143  RH  038%=      5-min Rain = 0
KHA2 121533Z 23019KT 30/14 A3003 RMK A01 T03030143  RH  038%=      5-min Rain = 0
KHA2 121534Z 22019KT 30/14 A3003 RMK A01 T03040144  RH  038%=      5-min Rain = 0
KHA2 121535Z 22019KT 31/15 A3003 RMK A01 T03050146  RH  038%=      5-min Rain = 0
KHA2 121536Z 23020KT 31/14 A3003 RMK A01 T03050144  RH  037%=      5-min Rain = 0
KHA2 121537Z 23019KT 31/14 A3003 RMK A01 T03050144  RH  038%=      5-min Rain = 0
KHA2 121538Z 22020KT 31/15 A3003 RMK A01 T03060145  RH  038%=      5-min Rain = 0
KHA2 121539Z 23019KT 31/14 A3003 RMK A01 T03060144  RH  037%=      5-min Rain = 0
KHA2 121540Z 23019KT 31/14 A3003 RMK A01 T03060143  RH  037%=      5-min Rain = 0
KHA2 121541Z 22021KT 31/14 A3003 RMK A01 T03060144  RH  037%=      5-min Rain = 0
KHA2 121542Z 23019KT 31/14 A3003 RMK A01 T03050144  RH  038%=      5-min Rain = 0
KHA2 121543Z 23020KT 31/14 A3003 RMK A01 T03060144  RH  037%=      5-min Rain = 0
KHA2 121544Z 22018KT 31/15 A3003 RMK A01 T03060146  RH  038%=      5-min Rain = 0
KHA2 121545Z 23017KT 31/15 A3003 RMK A01 T03080147  RH  038%=      5-min Rain = 0
KHA2 121546Z 22017KT 31/15 A3003 RMK A01 T03100150  RH  038%=      5-min Rain = 0
KHA2 121547Z 22018KT 31/15 A3003 RMK A01 T03120148  RH  037%=      5-min Rain = 0
KHA2 121548Z 23017KT 31/15 A3003 RMK A01 T03110146  RH  037%=      5-min Rain = 0
KHA2 121549Z 23018KT 31/15 A3003 RMK A01 T03090147  RH  037%=      5-min Rain = 0
KHA2 121550Z 24015KT 31/15 A3003 RMK A01 T03100149  RH  038%=      5-min Rain = 0
KHA2 121551Z 24021KT 31/15 A3003 RMK A01 T03130147  RH  036%=      5-min Rain = 0
KHA2 121552Z 25021KT 31/15 A3003 RMK A01 T03120145  RH  036%=      5-min Rain = 0
KHA2 121553Z 25021KT 31/14 A3003 RMK A01 T03110142  RH  036%=      5-min Rain = 0
KHA2 121554Z 24022KT 31/14 A3003 RMK A01 T03090143  RH  036%=      5-min Rain = 0
KHA2 121555Z 24019KT 31/14 A3003 RMK A01 T03090144  RH  037%=      5-min Rain = 0
KHA2 121556Z 25020KT 31/14 A3003 RMK A01 T03100142  RH  036%=      5-min Rain = 0
KHA2 121557Z 23020KT 31/14 A3003 RMK A01 T03100143  RH  036%=      5-min Rain = 0
KHA2 121558Z 23019KT 31/15 A3003 RMK A01 T03110145  RH  036%=      5-min Rain = 0
KHA2 121559Z 23018KT 31/15 A3003 RMK A01 T03130147  RH  036%=      5-min Rain = 0
KHA2 121600Z 23018G24KT 32/15 A3003 RMK A01 T03160147  RH  036%=      5-min Rain = 0
KHA2 121601Z 23019KT 32/15 A3003 RMK A01 T03160146  RH  036%=      5-min Rain = 0
KHA2 121602Z 23018KT 32/15 A3003 RMK A01 T03150147  RH  036%=      5-min Rain = 0
KHA2 121603Z 24020G26KT 32/15 A3003 RMK A01 T03160145  RH  035%=      5-min Rain = 0
KHA2 121604Z 23021KT 32/15 A3003 RMK A01 T03160145  RH  036%=      5-min Rain = 0
KHA2 121605Z 23019KT 31/14 A3003 RMK A01 T03140144  RH  036%=      5-min Rain = 0
KHA2 121606Z 23018KT 31/14 A3003 RMK A01 T03140144  RH  036%=      5-min Rain = 0
KHA2 121607Z 23018G23KT 32/15 A3003 RMK A01 T03160147  RH  036%=      5-min Rain = 0
KHA2 121608Z 24019G24KT 32/15 A3003 RMK A01 T03190148  RH  035%=      5-min Rain = 0
KHA2 121609Z 23022KT 32/15 A3004 RMK A01 T03190145  RH  035%=      5-min Rain = 0
KHA2 121610Z 23022KT 32/14 A3004 RMK A01 T03190143  RH  034%=      5-min Rain = 0
KHA2 121611Z 22023KT 32/14 A3004 RMK A01 T03170142  RH  035%=      5-min Rain = 0
KHA2 121612Z 22020G25KT 32/14 A3004 RMK A01 T03160143  RH  035%=      5-min Rain = 0
KHA2 121613Z 22019G24KT 32/14 A3004 RMK A01 T03160144  RH  035%=      5-min Rain = 0
KHA2 121614Z 22021KT 32/15 A3004 RMK A01 T03150146  RH  036%=      5-min Rain = 0
KHA2 121615Z 22018KT 31/15 A3004 RMK A01 T03140147  RH  036%=      5-min Rain = 0
KHA2 121616Z 24018KT 31/15 A3004 RMK A01 T03140148  RH  037%=      5-min Rain = 0
KHA2 121617Z 23016G22KT 32/15 A3004 RMK A01 T03160150  RH  037%=      5-min Rain = 0
KHA2 121618Z 23018KT 32/15 A3004 RMK A01 T03200149  RH  036%=      5-min Rain = 0
KHA2 121619Z 24017KT 32/15 A3004 RMK A01 T03210149  RH  035%=      5-min Rain = 0
KHA2 121620Z 24019KT 32/15 A3004 RMK A01 T03230149  RH  035%=      5-min Rain = 0
KHA2 121621Z 25020KT 32/15 A3004 RMK A01 T03210145  RH  035%=      5-min Rain = 0
KHA2 121622Z 24018KT 32/15 A3004 RMK A01 T03190145  RH  035%=      5-min Rain = 0
KHA2 121623Z 23016KT 32/15 A3004 RMK A01 T03210150  RH  036%=      5-min Rain = 0
KHA2 121624Z 23016KT 32/15 A3004 RMK A01 T03220149  RH  035%=      5-min Rain = 0
KHA2 121625Z 24015KT 32/15 A3004 RMK A01 T03210151  RH  036%=      5-min Rain = 0
KHA2 121626Z 24015KT 32/15 A3004 RMK A01 T03230149  RH  035%=      5-min Rain = 0
KHA2 121627Z 24016KT 32/15 A3004 RMK A01 T03220145  RH  034%=      5-min Rain = 0
KHA2 121628Z 23015G21KT 32/15 A3004 RMK A01 T03210152  RH  036%=      5-min Rain = 0
KHA2 121629Z 24016KT 32/15 A3004 RMK A01 T03210146  RH  035%=      5-min Rain = 0
KHA2 121630Z 24018G23KT 32/15 A3004 RMK A01 T03200148  RH  035%=      5-min Rain = 0
KHA2 121631Z 24020KT 32/15 A3004 RMK A01 T03200147  RH  035%=      5-min Rain = 0
KHA2 121632Z 24019KT 32/15 A3004 RMK A01 T03190146  RH  035%=      5-min Rain = 0
KHA2 121633Z 24018KT 32/15 A3004 RMK A01 T03160147  RH  036%=      5-min Rain = 0
KHA2 121634Z 24017KT 32/15 A3004 RMK A01 T03150146  RH  036%=      5-min Rain = 0
KHA2 121635Z 23016KT 32/15 A3004 RMK A01 T03160149  RH  036%=      5-min Rain = 0
KHA2 121636Z 23016KT 32/15 A3004 RMK A01 T03180150  RH  036%=      5-min Rain = 0
KHA2 121637Z 24016KT 32/15 A3004 RMK A01 T03200152  RH  036%=      5-min Rain = 0
KHA2 121638Z 23014KT 32/15 A3004 RMK A01 T03180150  RH  036%=      5-min Rain = 0
KHA2 121639Z 25014G19KT 32/15 A3004 RMK A01 T03200151  RH  036%=      5-min Rain = 0
KHA2 121640Z 24017KT 32/15 A3004 RMK A01 T03220152  RH  036%=      5-min Rain = 0
KHA2 121641Z 23017KT 32/15 A3004 RMK A01 T03220151  RH  036%=      5-min Rain = 0
KHA2 121642Z 23017KT 32/15 A3004 RMK A01 T03210148  RH  035%=      5-min Rain = 0
KHA2 121643Z 24015KT 32/15 A3004 RMK A01 T03220151  RH  036%=      5-min Rain = 0
KHA2 121644Z 25011KT 32/15 A3004 RMK A01 T03240154  RH  036%=      5-min Rain = 0
KHA2 121645Z 24015KT 33/16 A3004 RMK A01 T03250156  RH  036%=      5-min Rain = 0
KHA2 121646Z 24014KT 33/16 A3004 RMK A01 T03270155  RH  035%=      5-min Rain = 0
KHA2 121647Z 25013KT 32/15 A3004 RMK A01 T03230153  RH  036%=      5-min Rain = 0
KHA2 121648Z 25014KT 32/15 A3004 RMK A01 T03200154  RH  037%=      5-min Rain = 0
KHA2 121649Z 26015KT 32/15 A3004 RMK A01 T03230154  RH  036%=      5-min Rain = 0
KHA2 121650Z 26013KT 33/16 A3004 RMK A01 T03250155  RH  036%=      5-min Rain = 0
KHA2 121651Z 25013G18KT 33/16 A3004 RMK A01 T03270155  RH  036%=      5-min Rain = 0
KHA2 121652Z 24016KT 33/15 A3004 RMK A01 T03270152  RH  035%=      5-min Rain = 0
KHA2 121653Z 23017KT 33/15 A3004 RMK A01 T03250147  RH  034%=      5-min Rain = 0
KHA2 121654Z 24017KT 32/15 A3004 RMK A01 T03220149  RH  035%=      5-min Rain = 0
KHA2 121655Z 25014KT 32/15 A3004 RMK A01 T03210151  RH  036%=      5-min Rain = 0
KHA2 121656Z 25015KT 32/15 A3004 RMK A01 T03230153  RH  036%=      5-min Rain = 0
KHA2 121657Z 25017KT 32/15 A3004 RMK A01 T03230150  RH  035%=      5-min Rain = 0
KHA2 121658Z 24018KT 32/15 A3004 RMK A01 T03220146  RH  035%=      5-min Rain = 0
KHA2 121659Z 23016KT 33/15 A3004 RMK A01 T03250151  RH  035%=      5-min Rain = 0
KHA2 121700Z 24016G21KT 33/15 A3004 RMK A01 T03290152  RH  035%=      5-min Rain = 0
KHA2 121701Z 25015KT 33/15 A3004 RMK A01 T03250152  RH  035%=      5-min Rain = 0
KHA2 121702Z 24014KT 32/15 A3004 RMK A01 T03240153  RH  036%=      5-min Rain = 0
KHA2 121703Z 24013KT 33/16 A3004 RMK A01 T03250157  RH  036%=      5-min Rain = 0
KHA2 121704Z 23013KT 33/16 A3004 RMK A01 T03280157  RH  036%=      5-min Rain = 0
KHA2 121705Z 23015KT 33/15 A3004 RMK A01 T03270154  RH  035%=      5-min Rain = 0
KHA2 121706Z 23014KT 32/15 A3004 RMK A01 T03240153  RH  036%=      5-min Rain = 0
KHA2 121707Z 23013KT 32/15 A3004 RMK A01 T03210153  RH  036%=      5-min Rain = 0
KHA2 121708Z 23014KT 32/15 A3004 RMK A01 T03200152  RH  036%=      5-min Rain = 0
KHA2 121709Z 23012KT 32/15 A3004 RMK A01 T03180150  RH  036%=      5-min Rain = 0
KHA2 121710Z 23013KT 32/15 A3004 RMK A01 T03170153  RH  037%=      5-min Rain = 0
KHA2 121711Z 23012KT 32/15 A3004 RMK A01 T03160153  RH  037%=      5-min Rain = 0
KHA2 121712Z 23013KT 32/15 A3004 RMK A01 T03150149  RH  036%=      5-min Rain = 0
KHA2 121713Z 23012KT 32/15 A3004 RMK A01 T03190150  RH  036%=      5-min Rain = 0
KHA2 121714Z 23010KT 32/16 A3004 RMK A01 T03240155  RH  036%=      5-min Rain = 0
KHA2 121715Z 22011KT 33/15 A3004 RMK A01 T03260151  RH  035%=      5-min Rain = 0
KHA2 121716Z 23009KT 33/16 A3004 RMK A01 T03290155  RH  035%=      5-min Rain = 0
KHA2 121717Z 23010KT 33/16 A3004 RMK A01 T03320155  RH  035%=      5-min Rain = 0
KHA2 121718Z 24012KT 33/15 A3004 RMK A01 T03330153  RH  034%=      5-min Rain = 0
KHA2 121719Z 24014G19KT 34/15 A3004 RMK A01 T03370151  RH  033%=      5-min Rain = 0
KHA2 121720Z 24012KT 34/14 A3004 RMK A01 T03360140  RH  031%=      5-min Rain = 0
KHA2 121721Z 26013KT 33/14 A3004 RMK A01 T03340143  RH  032%=      5-min Rain = 0
KHA2 121722Z 28016KT 34/14 A3004 RMK A01 T03360144  RH  032%=      5-min Rain = 0
KHA2 121723Z 26014G19KT 34/15 A3004 RMK A01 T03360145  RH  032%=      5-min Rain = 0
KHA2 121724Z 26012KT 34/15 A3004 RMK A01 T03380146  RH  032%=      5-min Rain = 0
KHA2 121725Z 25011G17KT 34/14 A3004 RMK A01 T03350142  RH  031%=      5-min Rain = 0
KHA2 121726Z 25014KT 33/15 A3004 RMK A01 T03320147  RH  033%=      5-min Rain = 0
KHA2 121727Z 25012KT 33/15 A3004 RMK A01 T03310146  RH  033%=      5-min Rain = 0
KHA2 121728Z 24011KT 33/15 A3004 RMK A01 T03300146  RH  033%=      5-min Rain = 0
KHA2 121729Z 24014KT 33/15 A3004 RMK A01 T03310147  RH  033%=      5-min Rain = 0
KHA2 121730Z 24013KT 33/15 A3004 RMK A01 T03310148  RH  033%=      5-min Rain = 0
KHA2 121731Z 23013KT 33/15 A3004 RMK A01 T03330148  RH  033%=      5-min Rain = 0
KHA2 121732Z 24012KT 33/15 A3004 RMK A01 T03330148  RH  033%=      5-min Rain = 0
KHA2 121733Z 24015G20KT 33/15 A3004 RMK A01 T03340151  RH  033%=      5-min Rain = 0
KHA2 121734Z 24016KT 34/15 A3004 RMK A01 T03350149  RH  033%=      5-min Rain = 0
KHA2 121735Z 24013KT 33/15 A3004 RMK A01 T03330151  RH  033%=      5-min Rain = 0
KHA2 121736Z 26016KT 34/15 A3004 RMK A01 T03370150  RH  033%=      5-min Rain = 0
KHA2 121737Z 25016KT 33/15 A3004 RMK A01 T03340150  RH  033%=      5-min Rain = 0
KHA2 121738Z 25013KT 33/15 A3004 RMK A01 T03320151  RH  034%=      5-min Rain = 0
KHA2 121739Z 23012KT 33/15 A3004 RMK A01 T03320149  RH  033%=      5-min Rain = 0
KHA2 121740Z 24011KT 33/15 A3004 RMK A01 T03310149  RH  034%=      5-min Rain = 0
KHA2 121741Z 24013KT 33/15 A3004 RMK A01 T03320151  RH  034%=      5-min Rain = 0
KHA2 121742Z 23011KT 33/15 A3004 RMK A01 T03330149  RH  033%=      5-min Rain = 0
KHA2 121743Z 24013KT 33/15 A3004 RMK A01 T03330154  RH  034%=      5-min Rain = 0
KHA2 121744Z 24008KT 33/15 A3004 RMK A01 T03330154  RH  034%=      5-min Rain = 0
KHA2 121745Z 22010KT 33/16 A3004 RMK A01 T03340155  RH  034%=      5-min Rain = 0
KHA2 121746Z 24012KT 34/16 A3004 RMK A01 T03350155  RH  034%=      5-min Rain = 0
KHA2 121747Z 23014KT 34/16 A3004 RMK A01 T03360156  RH  034%=      5-min Rain = 0
KHA2 121748Z 23013KT 34/16 A3004 RMK A01 T03370155  RH  034%=      5-min Rain = 0
KHA2 121749Z 22010KT 34/15 A3004 RMK A01 T03350153  RH  033%=      5-min Rain = 0
KHA2 121750Z 22014KT 33/16 A3004 RMK A01 T03340155  RH  034%=      5-min Rain = 0
KHA2 121751Z 23015G21KT 33/16 A3004 RMK A01 T03340159  RH  035%=      5-min Rain = 0
KHA2 121752Z 22014KT 34/16 A3004 RMK A01 T03370157  RH  034%=      5-min Rain = 0
KHA2 121753Z 22013KT 34/15 A3004 RMK A01 T03350152  RH  033%=      5-min Rain = 0
KHA2 121754Z 24014KT 33/16 A3004 RMK A01 T03340156  RH  034%=      5-min Rain = 0
KHA2 121755Z 24012KT 34/15 A3004 RMK A01 T03350151  RH  033%=      5-min Rain = 0
KHA2 121756Z 23012KT 33/15 A3004 RMK A01 T03300152  RH  034%=      5-min Rain = 0
KHA2 121757Z 21012KT 33/16 A3004 RMK A01 T03320157  RH  035%=      5-min Rain = 0
KHA2 121758Z 22012G19KT 34/16 A3003 RMK A01 T03350156  RH  034%=      5-min Rain = 0
KHA2 121759Z 23011KT 34/15 A3003 RMK A01 T03350153  RH  033%=      5-min Rain = 0
KHA2 121800Z 22009G14KT 33/15 A3003 RMK A01 T03310154  RH  035%=      5-min Rain = 0
KHA2 121801Z 22012KT 33/16 A3003 RMK A01 T03340155  RH  034%=      5-min Rain = 0
KHA2 121802Z 23014KT 34/16 A3003 RMK A01 T03370156  RH  034%=      5-min Rain = 0
KHA2 121803Z 22013KT 34/16 A3003 RMK A01 T03390156  RH  033%=      5-min Rain = 0
KHA2 121804Z 21013KT 34/15 A3003 RMK A01 T03410150  RH  032%=      5-min Rain = 0
KHA2 121805Z 21012KT 34/15 A3003 RMK A01 T03410150  RH  032%=      5-min Rain = 0
KHA2 121806Z 21012KT 34/15 A3003 RMK A01 T03420151  RH  032%=      5-min Rain = 0
KHA2 121807Z 22014KT 34/15 A3003 RMK A01 T03430150  RH  031%=      5-min Rain = 0
KHA2 121808Z 22011KT 34/15 A3003 RMK A01 T03430152  RH  032%=      5-min Rain = 0
KHA2 121809Z 22010KT 34/15 A3003 RMK A01 T03430148  RH  031%=      5-min Rain = 0
KHA2 121810Z 21012G17KT 34/15 A3003 RMK A01 T03420149  RH  032%=      5-min Rain = 0
KHA2 121811Z 21011G16KT 34/15 A3003 RMK A01 T03420149  RH  031%=      5-min Rain = 0
KHA2 121812Z 22012KT 35/15 A3003 RMK A01 T03450146  RH  030%=      5-min Rain = 0
KHA2 121813Z 21010KT 35/15 A3003 RMK A01 T03450146  RH  030%=      5-min Rain = 0
KHA2 121814Z 22009KT 35/15 A3003 RMK A01 T03480148  RH  030%=      5-min Rain = 0
KHA2 121815Z 27009KT 35/14 A3003 RMK A01 T03500144  RH  029%=      5-min Rain = 0
KHA2 121816Z 25009KT 35/14 A3003 RMK A01 T03500142  RH  029%=      5-min Rain = 0
KHA2 121817Z 24009KT 35/15 A3003 RMK A01 T03500145  RH  029%=      5-min Rain = 0
KHA2 121818Z 24009KT 35/14 A3003 RMK A01 T03490144  RH  029%=      5-min Rain = 0
KHA2 121819Z 25009KT 35/15 A3003 RMK A01 T03490146  RH  030%=      5-min Rain = 0
KHA2 121820Z 25010KT 35/14 A3003 RMK A01 T03510141  RH  028%=      5-min Rain = 0
KHA2 121821Z 25007KT 35/14 A3003 RMK A01 T03490135  RH  028%=      5-min Rain = 0
KHA2 121822Z 25005KT 35/14 A3002 RMK A01 T03460139  RH  029%=      5-min Rain = 0
KHA2 121823Z 21008KT 35/14 A3002 RMK A01 T03470141  RH  029%=      5-min Rain = 0
KHA2 121824Z 24009KT 35/14 A3002 RMK A01 T03510142  RH  029%=      5-min Rain = 0
KHA2 121825Z 24010KT 35/14 A3002 RMK A01 T03510140  RH  028%=      5-min Rain = 0
KHA2 121826Z 21009KT 35/14 A3002 RMK A01 T03510141  RH  028%=      5-min Rain = 0
KHA2 121827Z 23012KT 35/14 A3002 RMK A01 T03530141  RH  028%=      5-min Rain = 0
KHA2 121828Z 23009KT 35/14 A3002 RMK A01 T03540139  RH  027%=      5-min Rain = 0
KHA2 121829Z 24009KT 35/14 A3002 RMK A01 T03540139  RH  028%=      5-min Rain = 0
KHA2 121830Z 25009G14KT 35/14 A3002 RMK A01 T03530140  RH  028%=      5-min Rain = 0
KHA2 121831Z 26011KT 35/14 A3002 RMK A01 T03540139  RH  028%=      5-min Rain = 0
KHA2 121832Z 27011KT 36/14 A3002 RMK A01 T03570136  RH  027%=      5-min Rain = 0
KHA2 121833Z 29008KT 36/13 A3002 RMK A01 T03560134  RH  026%=      5-min Rain = 0
KHA2 121834Z 26008G13KT 36/14 A3002 RMK A01 T03560139  RH  027%=      5-min Rain = 0
KHA2 121835Z 23009KT 36/14 A3002 RMK A01 T03590137  RH  026%=      5-min Rain = 0
KHA2 121836Z 22007KT 36/13 A3002 RMK A01 T03570134  RH  026%=      5-min Rain = 0
KHA2 121837Z 20006KT 36/14 A3002 RMK A01 T03560137  RH  027%=      5-min Rain = 0
KHA2 121838Z 22008KT 36/14 A3002 RMK A01 T03560142  RH  028%=      5-min Rain = 0
KHA2 121839Z 24010KT 36/15 A3002 RMK A01 T03600145  RH  028%=      5-min Rain = 0
KHA2 121840Z 25010KT 36/14 A3002 RMK A01 T03600142  RH  027%=      5-min Rain = 0
KHA2 121841Z 25011KT 36/14 A3002 RMK A01 T03600142  RH  027%=      5-min Rain = 0
KHA2 121842Z 25010KT 36/14 A3002 RMK A01 T03620135  RH  026%=      5-min Rain = 0
KHA2 121843Z 25009KT 36/14 A3002 RMK A01 T03600137  RH  026%=      5-min Rain = 0
KHA2 121844Z 22007KT 36/13 A3002 RMK A01 T03620134  RH  026%=      5-min Rain = 0
KHA2 121845Z 24007G12KT 36/13 A3002 RMK A01 T03600133  RH  026%=      5-min Rain = 0
KHA2 121846Z 23011KT 36/14 A3001 RMK A01 T03600139  RH  027%=      5-min Rain = 0
KHA2 121847Z 26008KT 36/13 A3001 RMK A01 T03590134  RH  026%=      5-min Rain = 0
KHA2 121848Z 23008G14KT 36/14 A3001 RMK A01 T03560136  RH  027%=      5-min Rain = 0
KHA2 121849Z 22011G16KT 36/14 A3001 RMK A01 T03590139  RH  027%=      5-min Rain = 0
KHA2 121850Z 21008KT 36/14 A3001 RMK A01 T03590138  RH  027%=      5-min Rain = 0
KHA2 121851Z 21007KT 36/14 A3001 RMK A01 T03590135  RH  026%=      5-min Rain = 0
KHA2 121852Z 20009KT 36/14 A3001 RMK A01 T03600140  RH  027%=      5-min Rain = 0
KHA2 121853Z 20011KT 36/15 A3001 RMK A01 T03620145  RH  027%=      5-min Rain = 0
KHA2 121854Z 21011KT 37/15 A3001 RMK A01 T03650146  RH  027%=      5-min Rain = 0
KHA2 121855Z 24011KT 37/14 A3001 RMK A01 T03670140  RH  026%=      5-min Rain = 0
KHA2 121856Z 23009KT 36/14 A3001 RMK A01 T03640137  RH  026%=      5-min Rain = 0
KHA2 121857Z 22010KT 37/14 A3001 RMK A01 T03660140  RH  026%=      5-min Rain = 0
KHA2 121858Z 23007KT 37/14 A3001 RMK A01 T03660136  RH  025%=      5-min Rain = 0
KHA2 121859Z 23009KT 36/14 A3001 RMK A01 T03640136  RH  026%=      5-min Rain = 0
KHA2 121900Z 22009KT 36/14 A3001 RMK A01 T03640137  RH  026%=      5-min Rain = 0
KHA2 121901Z 21006KT 36/13 A3001 RMK A01 T03630134  RH  025%=      5-min Rain = 0
KHA2 121902Z 22010KT 36/14 A3001 RMK A01 T03640141  RH  027%=      5-min Rain = 0
KHA2 121903Z 25009KT 37/14 A3001 RMK A01 T03680135  RH  025%=      5-min Rain = 0
KHA2 121904Z 24011KT 37/14 A3001 RMK A01 T03710141  RH  026%=      5-min Rain = 0
KHA2 121905Z 23011KT 37/14 A3001 RMK A01 T03730139  RH  025%=      5-min Rain = 0
KHA2 121906Z 24009KT 37/14 A3001 RMK A01 T03740141  RH  025%=      5-min Rain = 0
KHA2 121907Z 24011KT 37/13 A3001 RMK A01 T03710132  RH  024%=      5-min Rain = 0
KHA2 121908Z 23009KT 37/13 A3001 RMK A01 T03650133  RH  025%=      5-min Rain = 0
KHA2 121909Z 21007KT 36/13 A3001 RMK A01 T03640132  RH  025%=      5-min Rain = 0
KHA2 121910Z 21004KT 36/13 A3001 RMK A01 T03630132  RH  025%=      5-min Rain = 0
KHA2 121911Z 22005KT 36/13 A3001 RMK A01 T03640132  RH  025%=      5-min Rain = 0
KHA2 121912Z 20008KT 37/13 A3001 RMK A01 T03660133  RH  025%=      5-min Rain = 0
KHA2 121913Z 21009G14KT 37/13 A3001 RMK A01 T03670134  RH  025%=      5-min Rain = 0
KHA2 121914Z 22012KT 37/14 A3001 RMK A01 T03670136  RH  025%=      5-min Rain = 0
KHA2 121915Z 20009G14KT 37/14 A3001 RMK A01 T03650135  RH  025%=      5-min Rain = 0
KHA2 121916Z 20009KT 37/14 A3001 RMK A01 T03650136  RH  026%=      5-min Rain = 0
KHA2 121917Z 20012KT 37/14 A3001 RMK A01 T03670140  RH  026%=      5-min Rain = 0
KHA2 121918Z 19012KT 37/14 A30 RMK A01 T03700137  RH  025%=      5-min Rain = 0
KHA2 121919Z 19012KT 37/14 A30 RMK A01 T03700138  RH  025%=      5-min Rain = 0
KHA2 121920Z 18011KT 37/14 A30 RMK A01 T03700136  RH  025%=      5-min Rain = 0
KHA2 121921Z 19008KT 37/14 A30 RMK A01 T03680136  RH  025%=      5-min Rain = 0
KHA2 121922Z 20006KT 37/14 A30 RMK A01 T03680135  RH  025%=      5-min Rain = 0
KHA2 121923Z 19006KT 37/14 A30 RMK A01 T03700137  RH  025%=      5-min Rain = 0
KHA2 121924Z 22002KT 37/14 A30 RMK A01 T03710137  RH  025%=      5-min Rain = 0
KHA2 121925Z 26004KT 37/14 A30 RMK A01 T03720136  RH  024%=      5-min Rain = 0
KHA2 121926Z 22004KT 37/14 A30 RMK A01 T03720135  RH  024%=      5-min Rain = 0
KHA2 121927Z 23002KT 37/13 A30 RMK A01 T03710134  RH  024%=      5-min Rain = 0
KHA2 121928Z 26006KT 37/13 A30 RMK A01 T03700133  RH  024%=      5-min Rain = 0
KHA2 121929Z 24009KT 37/13 A30 RMK A01 T03710133  RH  024%=      5-min Rain = 0
KHA2 121930Z 22008KT 37/13 A30 RMK A01 T03710134  RH  024%=      5-min Rain = 0
KHA2 121931Z 21007KT 37/14 A30 RMK A01 T03680141  RH  026%=      5-min Rain = 0
KHA2 121932Z 21009KT 37/14 A30 RMK A01 T03710141  RH  026%=      5-min Rain = 0
KHA2 121933Z 24010KT 38/14 A30 RMK A01 T03760142  RH  025%=      5-min Rain = 0
KHA2 121934Z 23009KT 38/14 A30 RMK A01 T03780135  RH  024%=      5-min Rain = 0
KHA2 121935Z 22010KT 37/13 A30 RMK A01 T03740129  RH  023%=      5-min Rain = 0
KHA2 121936Z 23006KT 37/13 A30 RMK A01 T03720127  RH  023%=      5-min Rain = 0
KHA2 121937Z 25004KT 37/13 A30 RMK A01 T03710128  RH  023%=      5-min Rain = 0
KHA2 121938Z 23003KT 37/13 A30 RMK A01 T03690128  RH  024%=      5-min Rain = 0
KHA2 121939Z 22004G10KT 37/13 A30 RMK A01 T03680130  RH  024%=      5-min Rain = 0
KHA2 121940Z 24009KT 37/14 A30 RMK A01 T03700135  RH  025%=      5-min Rain = 0
KHA2 121941Z 24008KT 38/14 A30 RMK A01 T03750135  RH  024%=      5-min Rain = 0
KHA2 121942Z 24008KT 38/13 A30 RMK A01 T03750128  RH  023%=      5-min Rain = 0
KHA2 121943Z 19007KT 38/14 A2999 RMK A01 T03750135  RH  024%=      5-min Rain = 0
KHA2 121944Z 18008KT 38/13 A2999 RMK A01 T03770131  RH  023%=      5-min Rain = 0
KHA2 121945Z 17006KT 38/13 A2999 RMK A01 T03760128  RH  023%=      5-min Rain = 0
KHA2 121946Z 16004KT 37/13 A2999 RMK A01 T03740125  RH  023%=      5-min Rain = 0
KHA2 121947Z 19004KT 37/12 A2999 RMK A01 T03720122  RH  022%=      5-min Rain = 0
KHA2 121948Z 19003KT 37/12 A2999 RMK A01 T03730116  RH  021%=      5-min Rain = 0
KHA2 121949Z 25004KT 37/11 A2999 RMK A01 T03740113  RH  021%=      5-min Rain = 0
KHA2 121950Z 26001KT 37/11 A2999 RMK A01 T03730110  RH  021%=      5-min Rain = 0
KHA2 121951Z 23001KT 37/11 A2999 RMK A01 T03730110  RH  020%=      5-min Rain = 0
KHA2 121952Z 23001KT 38/12 A2999 RMK A01 T03770117  RH  021%=      5-min Rain = 0
KHA2 121953Z 25001KT 38/12 A2999 RMK A01 T03810117  RH  021%=      5-min Rain = 0
KHA2 121954Z 22003KT 38/12 A2999 RMK A01 T03840117  RH  020%=      5-min Rain = 0
KHA2 121955Z 22005KT 39/12 A2999 RMK A01 T03850117  RH  020%=      5-min Rain = 0
KHA2 121956Z 22004KT 38/11 A2999 RMK A01 T03810110  RH  020%=      5-min Rain = 0
KHA2 121957Z 22003KT 38/11 A2999 RMK A01 T03760109  RH  020%=      5-min Rain = 0
KHA2 121958Z 25004KT 38/11 A2999 RMK A01 T03750113  RH  021%=      5-min Rain = 0
KHA2 121959Z 22004KT 38/12 A2998 RMK A01 T03750118  RH  021%=      5-min Rain = 0
KHA2 122000Z 20006KT 38/13 A2998 RMK A01 T03790125  RH  022%=      5-min Rain = 0
KHA2 122001Z 21006KT 38/12 A2998 RMK A01 T03820120  RH  021%=      5-min Rain = 0
KHA2 122002Z 21007KT 38/12 A2998 RMK A01 T03810124  RH  022%=      5-min Rain = 0
KHA2 122003Z 24009KT 38/12 A2998 RMK A01 T03810122  RH  021%=      5-min Rain = 0
KHA2 122004Z 24006KT 38/12 A2998 RMK A01 T03790120  RH  021%=      5-min Rain = 0
KHA2 122005Z 20006KT 38/12 A2998 RMK A01 T03770122  RH  022%=      5-min Rain = 0
KHA2 122006Z 17008KT 38/12 A2998 RMK A01 T03770119  RH  021%=      5-min Rain = 0
KHA2 122007Z 16008KT 38/12 A2998 RMK A01 T03760119  RH  021%=      5-min Rain = 0
KHA2 122008Z 17007KT 38/12 A2998 RMK A01 T03760119  RH  022%=      5-min Rain = 0
KHA2 122009Z 15004KT 38/11 A2998 RMK A01 T03760114  RH  021%=      5-min Rain = 0
KHA2 122010Z 16004KT 38/12 A2998 RMK A01 T03750117  RH  021%=      5-min Rain = 0
KHA2 122011Z 16001KT 37/11 A2998 RMK A01 T03740110  RH  020%=      5-min Rain = 0
KHA2 122012Z 11002KT 37/11 A2998 RMK A01 T03740112  RH  021%=      5-min Rain = 0
KHA2 122013Z 11003KT 38/12 A2998 RMK A01 T03750122  RH  022%=      5-min Rain = 0
KHA2 122014Z 17006KT 38/12 A2998 RMK A01 T03770122  RH  022%=      5-min Rain = 0
KHA2 122015Z 15006KT 38/12 A2998 RMK A01 T03770120  RH  022%=      5-min Rain = 0
KHA2 122016Z 23008KT 38/11 A2998 RMK A01 T03770108  RH  020%=      5-min Rain = 0
KHA2 122017Z 24010KT 38/08 A2998 RMK A01 T03810081  RH  016%=      5-min Rain = 0
KHA2 122018Z 22011KT 38/09 A2997 RMK A01 T03840090  RH  017%=      5-min Rain = 0
KHA2 122019Z 23010KT 39/11 A2998 RMK A01 T03890113  RH  019%=      5-min Rain = 0
KHA2 122020Z 23009KT 39/09 A2998 RMK A01 T03890088  RH  016%=      5-min Rain = 0
KHA2 122021Z 22008KT 39/09 A2998 RMK A01 T03850092  RH  017%=      5-min Rain = 0
KHA2 122022Z 22007KT 38/10 A2998 RMK A01 T03840096  RH  018%=      5-min Rain = 0
KHA2 122023Z 23007KT 38/11 A2998 RMK A01 T03830107  RH  019%=      5-min Rain = 0
KHA2 122024Z 21009G14KT 38/11 A2997 RMK A01 T03810106  RH  019%=      5-min Rain = 0
KHA2 122025Z 27007KT 39/10 A2998 RMK A01 T03850099  RH  018%=      5-min Rain = 0
KHA2 122026Z 27011KT 39/10 A2998 RMK A01 T03900101  RH  018%=      5-min Rain = 0
KHA2 122027Z 26010KT 39/11 A2998 RMK A01 T03910107  RH  018%=      5-min Rain = 0
KHA2 122028Z 25008KT 39/10 A2998 RMK A01 T03890095  RH  017%=      5-min Rain = 0
KHA2 122029Z 26008KT 38/10 A2998 RMK A01 T03840098  RH  018%=      5-min Rain = 0
KHA2 122030Z 25009KT 38/09 A2998 RMK A01 T03830094  RH  017%=      5-min Rain = 0
KHA2 122031Z 25007KT 38/09 A2997 RMK A01 T03810092  RH  017%=      5-min Rain = 0
KHA2 122032Z 27007KT 38/09 A2997 RMK A01 T03820088  RH  017%=      5-min Rain = 0
KHA2 122033Z 28005KT 38/08 A2997 RMK A01 T03840080  RH  016%=      5-min Rain = 0
KHA2 122034Z 29006KT 39/08 A2997 RMK A01 T03850083  RH  016%=      5-min Rain = 0
KHA2 122035Z 32006KT 39/08 A2997 RMK A01 T03860083  RH  016%=      5-min Rain = 0
KHA2 122036Z 31006KT 38/08 A2997 RMK A01 T03810083  RH  016%=      5-min Rain = 0
KHA2 122037Z 31007KT 38/09 A2997 RMK A01 T03790089  RH  017%=      5-min Rain = 0
KHA2 122038Z 29004KT 38/09 A2997 RMK A01 T03780090  RH  018%=      5-min Rain = 0
KHA2 122039Z 25003KT 38/09 A2997 RMK A01 T03770089  RH  017%=      5-min Rain = 0
KHA2 122040Z 22002KT 38/09 A2997 RMK A01 T03760088  RH  017%=      5-min Rain = 0
KHA2 122041Z 20005KT 38/09 A2997 RMK A01 T03750088  RH  017%=      5-min Rain = 0
KHA2 122042Z 22003KT 38/09 A2997 RMK A01 T03750093  RH  018%=      5-min Rain = 0
KHA2 122043Z 26006KT 38/09 A2997 RMK A01 T03780093  RH  018%=      5-min Rain = 0
KHA2 122044Z 25004KT 38/09 A2997 RMK A01 T03810092  RH  017%=      5-min Rain = 0
KHA2 122045Z 26002KT 38/09 A2997 RMK A01 T03820092  RH  017%=      5-min Rain = 0
KHA2 122046Z 30004KT 38/09 A2997 RMK A01 T03820093  RH  018%=      5-min Rain = 0
KHA2 122047Z 29002KT 38/10 A2997 RMK A01 T03820097  RH  018%=      5-min Rain = 0
KHA2 122048Z 27002KT 38/10 A2997 RMK A01 T03820104  RH  019%=      5-min Rain = 0
KHA2 122049Z 26003KT 38/10 A2997 RMK A01 T03840095  RH  018%=      5-min Rain = 0
KHA2 122050Z 24002KT 38/10 A2997 RMK A01 T03820098  RH  018%=      5-min Rain = 0
KHA2 122051Z 24004KT 38/10 A2997 RMK A01 T03820095  RH  018%=      5-min Rain = 0
KHA2 122052Z 21002KT 38/09 A2997 RMK A01 T03820089  RH  017%=      5-min Rain = 0
KHA2 122053Z 10004KT 38/09 A2996 RMK A01 T03810091  RH  017%=      5-min Rain = 0
KHA2 122054Z 11004KT 38/10 A2996 RMK A01 T03800095  RH  018%=      5-min Rain = 0
KHA2 122055Z 10004KT 38/10 A2996 RMK A01 T03790100  RH  019%=      5-min Rain = 0
KHA2 122056Z 09004KT 38/10 A2996 RMK A01 T03790104  RH  019%=      5-min Rain = 0
KHA2 122057Z 05005KT 38/10 A2996 RMK A01 T03800101  RH  019%=      5-min Rain = 0
KHA2 122058Z 05003KT 38/10 A2996 RMK A01 T03800102  RH  019%=      5-min Rain = 0
KHA2 122059Z 23006KT 38/11 A2996 RMK A01 T03810108  RH  019%=      5-min Rain = 0
KHA2 122100Z 24006KT 39/10 A2996 RMK A01 T03850099  RH  018%=      5-min Rain = 0
KHA2 122101Z 23002KT 38/11 A2996 RMK A01 T03840109  RH  019%=      5-min Rain = 0
KHA2 122102Z 23009KT 39/11 A2996 RMK A01 T03860107  RH  019%=      5-min Rain = 0
KHA2 122103Z 16005G10KT 39/10 A2996 RMK A01 T03850099  RH  018%=      5-min Rain = 0
KHA2 122104Z 01004KT 38/10 A2996 RMK A01 T03810096  RH  018%=      5-min Rain = 0
KHA2 122105Z 05004KT 38/10 A2995 RMK A01 T03800100  RH  018%=      5-min Rain = 0
KHA2 122106Z 02001KT 38/10 A2995 RMK A01 T03790097  RH  018%=      5-min Rain = 0
KHA2 122107Z 19005G11KT 38/10 A2996 RMK A01 T03800104  RH  019%=      5-min Rain = 0
KHA2 122108Z 20011KT 39/10 A2995 RMK A01 T03850098  RH  018%=      5-min Rain = 0
KHA2 122109Z 23011KT 39/09 A2995 RMK A01 T03900086  RH  016%=      5-min Rain = 0
KHA2 122110Z 23011KT 39/08 A2995 RMK A01 T03940084  RH  015%=      5-min Rain = 0
KHA2 122111Z 22010KT 40/08 A2995 RMK A01 T03960082  RH  015%=      5-min Rain = 0
KHA2 122112Z 22010KT 40/08 A2995 RMK A01 T03970084  RH  015%=      5-min Rain = 0
KHA2 122113Z 21008KT 40/08 A2995 RMK A01 T03960077  RH  015%=      5-min Rain = 0
KHA2 122114Z 23008G14KT 39/08 A2995 RMK A01 T03920076  RH  015%=      5-min Rain = 0
KHA2 122115Z 23009KT 39/08 A2995 RMK A01 T03930076  RH  015%=      5-min Rain = 0
KHA2 122116Z 24010KT 40/08 A2995 RMK A01 T03950079  RH  015%=      5-min Rain = 0
KHA2 122117Z 21008KT 40/08 A2995 RMK A01 T03970081  RH  015%=      5-min Rain = 0
KHA2 122118Z 21005KT 40/08 A2995 RMK A01 T03960082  RH  015%=      5-min Rain = 0
KHA2 122119Z 23006KT 39/08 A2995 RMK A01 T03940075  RH  015%=      5-min Rain = 0
KHA2 122120Z 27004KT 39/07 A2995 RMK A01 T03900073  RH  015%=      5-min Rain = 0
KHA2 122121Z 25011KT 39/08 A2995 RMK A01 T03890082  RH  016%=      5-min Rain = 0
KHA2 122122Z 23008KT 39/09 A2995 RMK A01 T03910085  RH  016%=      5-min Rain = 0
KHA2 122123Z 20009KT 39/09 A2995 RMK A01 T03910088  RH  016%=      5-min Rain = 0
KHA2 122124Z 20009KT 39/08 A2995 RMK A01 T03870080  RH  016%=      5-min Rain = 0
KHA2 122125Z 21012KT 38/09 A2995 RMK A01 T03840085  RH  016%=      5-min Rain = 0
KHA2 122126Z 19013KT 38/09 A2995 RMK A01 T03830085  RH  016%=      5-min Rain = 0
KHA2 122127Z 19010KT 38/08 A2995 RMK A01 T03800077  RH  016%=      5-min Rain = 0
KHA2 122128Z 18006KT 38/08 A2995 RMK A01 T03770080  RH  016%=      5-min Rain = 0
KHA2 122129Z 19006KT 38/08 A2995 RMK A01 T03760084  RH  017%=      5-min Rain = 0
KHA2 122130Z 20006KT 38/09 A2995 RMK A01 T03760089  RH  018%=      5-min Rain = 0
KHA2 122131Z 20007KT 38/09 A2995 RMK A01 T03770089  RH  017%=      5-min Rain = 0
KHA2 122132Z 20009KT 38/10 A2995 RMK A01 T03770099  RH  019%=      5-min Rain = 0
KHA2 122133Z 19006KT 38/10 A2995 RMK A01 T03760098  RH  019%=      5-min Rain = 0
KHA2 122134Z 14004KT 37/10 A2995 RMK A01 T03740099  RH  019%=      5-min Rain = 0
KHA2 122135Z 13003KT 37/10 A2995 RMK A01 T03730102  RH  019%=      5-min Rain = 0
KHA2 122136Z 10004KT 37/10 A2995 RMK A01 T03720099  RH  019%=      5-min Rain = 0
KHA2 122137Z 10006KT 37/11 A2995 RMK A01 T03710105  RH  020%=      5-min Rain = 0
KHA2 122138Z 09009KT 37/10 A2996 RMK A01 T03710102  RH  020%=      5-min Rain = 0
KHA2 122139Z 10008KT 38/11 A2996 RMK A01 T03750108  RH  020%=      5-min Rain = 0
KHA2 122140Z 11007KT 38/10 A2996 RMK A01 T03780102  RH  019%=      5-min Rain = 0
KHA2 122141Z 08005KT 38/11 A2996 RMK A01 T03780107  RH  020%=      5-min Rain = 0
KHA2 122142Z 08006KT 38/11 A2996 RMK A01 T03770105  RH  019%=      5-min Rain = 0
KHA2 122143Z 08003KT 37/10 A2996 RMK A01 T03740099  RH  019%=      5-min Rain = 0
KHA2 122144Z 11002KT 37/11 A2996 RMK A01 T03720106  RH  020%=      5-min Rain = 0
KHA2 122145Z 14000KT 37/10 A2996 RMK A01 T03720098  RH  019%=      5-min Rain = 0
KHA2 122146Z 08001KT 37/10 A2996 RMK A01 T03720101  RH  020%=      5-min Rain = 0
KHA2 122147Z 07006G11KT 37/10 A2996 RMK A01 T03720103  RH  020%=      5-min Rain = 0
KHA2 122148Z 07010KT 37/11 A2996 RMK A01 T03720108  RH  020%=      5-min Rain = 0
KHA2 122149Z 06007KT 37/10 A2996 RMK A01 T03700103  RH  020%=      5-min Rain = 0
KHA2 122150Z 04006KT 37/11 A2996 RMK A01 T03690110  RH  021%=      5-min Rain = 0
KHA2 122151Z 03007KT 37/11 A2996 RMK A01 T03690107  RH  021%=      5-min Rain = 0
KHA2 122152Z 05007KT 37/10 A2996 RMK A01 T03680103  RH  020%=      5-min Rain = 0
KHA2 122153Z 08008KT 37/11 A2996 RMK A01 T03680109  RH  021%=      5-min Rain = 0
KHA2 122154Z 05006KT 37/10 A2996 RMK A01 T03680102  RH  020%=      5-min Rain = 0
KHA2 122155Z 02002KT 37/10 A2995 RMK A01 T03670097  RH  019%=      5-min Rain = 0
KHA2 122156Z 10006KT 37/10 A2995 RMK A01 T03670100  RH  020%=      5-min Rain = 0
KHA2 122157Z 09005KT 37/10 A2995 RMK A01 T03670096  RH  019%=      5-min Rain = 0
KHA2 122158Z 09006KT 37/10 A2995 RMK A01 T03670104  RH  020%=      5-min Rain = 0
KHA2 122159Z 10006KT 37/10 A2995 RMK A01 T03670104  RH  020%=      5-min Rain = 0
KHA2 122200Z 11007KT 37/10 A2995 RMK A01 T03660103  RH  020%=      5-min Rain = 0
KHA2 122201Z 12008KT 37/10 A2995 RMK A01 T03660101  RH  020%=      5-min Rain = 0
KHA2 122202Z 11007KT 37/10 A2995 RMK A01 T03670098  RH  020%=      5-min Rain = 0
KHA2 122203Z 10005KT 37/11 A2995 RMK A01 T03670107  RH  021%=      5-min Rain = 0
KHA2 122204Z 11004KT 37/11 A2995 RMK A01 T03670111  RH  021%=      5-min Rain = 0
KHA2 122205Z 13005KT 37/11 A2995 RMK A01 T03670108  RH  021%=      5-min Rain = 0
KHA2 122206Z 13006KT 37/11 A2995 RMK A01 T03670107  RH  021%=      5-min Rain = 0
KHA2 122207Z 11006KT 37/11 A2995 RMK A01 T03670109  RH  021%=      5-min Rain = 0
KHA2 122208Z 15007KT 37/12 A2995 RMK A01 T03670119  RH  023%=      5-min Rain = 0
KHA2 122209Z 14008KT 37/12 A2995 RMK A01 T03670116  RH  022%=      5-min Rain = 0
KHA2 122210Z 15011KT 37/12 A2995 RMK A01 T03670118  RH  022%=      5-min Rain = 0
KHA2 122211Z 15013KT 37/12 A2995 RMK A01 T03660115  RH  022%=      5-min Rain = 0
KHA2 122212Z 13008KT 37/11 A2995 RMK A01 T03660112  RH  022%=      5-min Rain = 0
KHA2 122213Z 12008KT 37/12 A2995 RMK A01 T03660115  RH  022%=      5-min Rain = 0
KHA2 122214Z 12007KT 37/12 A2995 RMK A01 T03660119  RH  023%=      5-min Rain = 0
KHA2 122215Z 11007KT 37/11 A2995 RMK A01 T03660114  RH  022%=      5-min Rain = 0
KHA2 122216Z 12008KT 37/12 A2995 RMK A01 T03680118  RH  022%=      5-min Rain = 0
KHA2 122217Z 12009KT 37/12 A2995 RMK A01 T03710119  RH  022%=      5-min Rain = 0
KHA2 122218Z 11009KT 37/12 A2995 RMK A01 T03730117  RH  022%=      5-min Rain = 0
KHA2 122219Z 10009KT 37/12 A2994 RMK A01 T03730121  RH  022%=      5-min Rain = 0
KHA2 122220Z 09009KT 37/12 A2994 RMK A01 T03720119  RH  022%=      5-min Rain = 0
KHA2 122221Z 10009KT 37/12 A2994 RMK A01 T03700124  RH  023%=      5-min Rain = 0
KHA2 122222Z 11010KT 37/12 A2994 RMK A01 T03710123  RH  023%=      5-min Rain = 0
KHA2 122223Z 10011KT 37/12 A2994 RMK A01 T03730122  RH  022%=      5-min Rain = 0
KHA2 122224Z 09009KT 37/12 A2994 RMK A01 T03740121  RH  022%=      5-min Rain = 0
KHA2 122225Z 12010KT 37/13 A2994 RMK A01 T03740125  RH  022%=      5-min Rain = 0
KHA2 122226Z 11008KT 38/12 A2995 RMK A01 T03770119  RH  021%=      5-min Rain = 0
KHA2 122227Z 12006KT 38/12 A2994 RMK A01 T03780119  RH  021%=      5-min Rain = 0
KHA2 122228Z 11008KT 38/12 A2994 RMK A01 T03800123  RH  022%=      5-min Rain = 0
KHA2 122229Z 12008KT 38/12 A2994 RMK A01 T03800122  RH  021%=      5-min Rain = 0
KHA2 122230Z 13010KT 38/12 A2994 RMK A01 T03790115  RH  021%=      5-min Rain = 0
KHA2 122231Z 12009KT 38/12 A2994 RMK A01 T03780115  RH  021%=      5-min Rain = 0
KHA2 122232Z 13010KT 38/11 A2994 RMK A01 T03790113  RH  020%=      5-min Rain = 0
KHA2 122233Z 14008KT 38/11 A2994 RMK A01 T03790107  RH  020%=      5-min Rain = 0
KHA2 122234Z 11008KT 38/11 A2994 RMK A01 T03770112  RH  020%=      5-min Rain = 0
KHA2 122235Z 10007KT 38/12 A2994 RMK A01 T03780118  RH  021%=      5-min Rain = 0
KHA2 122236Z 10007KT 38/12 A2994 RMK A01 T03790120  RH  021%=      5-min Rain = 0
KHA2 122237Z 07007KT 38/12 A2994 RMK A01 T03800119  RH  021%=      5-min Rain = 0
KHA2 122238Z 06005KT 38/12 A2994 RMK A01 T03800116  RH  021%=      5-min Rain = 0
KHA2 122239Z 05008KT 38/12 A2994 RMK A01 T03800118  RH  021%=      5-min Rain = 0
KHA2 122240Z 04009KT 38/11 A2994 RMK A01 T03810114  RH  020%=      5-min Rain = 0
KHA2 122241Z 05010KT 38/11 A2994 RMK A01 T03800114  RH  020%=      5-min Rain = 0
KHA2 122242Z 06010KT 38/12 A2994 RMK A01 T03800117  RH  021%=      5-min Rain = 0
KHA2 122243Z 05008KT 38/11 A2994 RMK A01 T03810112  RH  020%=      5-min Rain = 0
KHA2 122244Z 06008KT 38/11 A2994 RMK A01 T03800110  RH  020%=      5-min Rain = 0
KHA2 122245Z 06008KT 38/12 A2994 RMK A01 T03800116  RH  021%=      5-min Rain = 0
KHA2 122246Z 05008KT 38/11 A2994 RMK A01 T03810112  RH  020%=      5-min Rain = 0
KHA2 122247Z 05011KT 38/12 A2994 RMK A01 T03820118  RH  021%=      5-min Rain = 0
KHA2 122248Z 06013KT 38/12 A2994 RMK A01 T03830122  RH  021%=      5-min Rain = 0
KHA2 122249Z 07012KT 38/12 A2995 RMK A01 T03800123  RH  022%=      5-min Rain = 0
KHA2 122250Z 07011KT 38/12 A2995 RMK A01 T03780119  RH  021%=      5-min Rain = 0
KHA2 122251Z 08009KT 38/12 A2995 RMK A01 T03770118  RH  021%=      5-min Rain = 0
KHA2 122252Z 09008KT 38/12 A2995 RMK A01 T03750118  RH  021%=      5-min Rain = 0
KHA2 122253Z 08006KT 37/12 A2995 RMK A01 T03740119  RH  022%=      5-min Rain = 0
KHA2 122254Z 07009KT 38/13 A2995 RMK A01 T03750128  RH  023%=      5-min Rain = 0
KHA2 122255Z 06010KT 38/12 A2995 RMK A01 T03770124  RH  022%=      5-min Rain = 0
KHA2 122256Z 06009KT 38/12 A2995 RMK A01 T03760118  RH  021%=      5-min Rain = 0
KHA2 122257Z 06009KT 38/12 A2995 RMK A01 T03760120  RH  022%=      5-min Rain = 0
KHA2 122258Z 07007KT 38/12 A2995 RMK A01 T03750121  RH  022%=      5-min Rain = 0
KHA2 122259Z 07008KT 38/12 A2995 RMK A01 T03760122  RH  022%=      5-min Rain = 0
KHA2 122300Z 06006KT 38/12 A2995 RMK A01 T03760119  RH  022%=      5-min Rain = 0
KHA2 122301Z 08008KT 38/13 A2995 RMK A01 T03750127  RH  023%=      5-min Rain = 0
KHA2 122302Z 09010KT 38/12 A2995 RMK A01 T03760116  RH  021%=      5-min Rain = 0
KHA2 122303Z 09007KT 37/11 A2995 RMK A01 T03730114  RH  021%=      5-min Rain = 0
KHA2 122304Z 10008KT 37/12 A2995 RMK A01 T03730122  RH  022%=      5-min Rain = 0
KHA2 122305Z 09008KT 37/12 A2995 RMK A01 T03740115  RH  021%=      5-min Rain = 0
KHA2 122306Z 09009KT 37/12 A2995 RMK A01 T03740115  RH  021%=      5-min Rain = 0
KHA2 122307Z 09010KT 38/12 A2995 RMK A01 T03750116  RH  021%=      5-min Rain = 0
KHA2 122308Z 10009KT 38/11 A2995 RMK A01 T03750113  RH  021%=      5-min Rain = 0
KHA2 122309Z 09011KT 38/12 A2995 RMK A01 T03750117  RH  021%=      5-min Rain = 0
KHA2 122310Z 09011KT 38/12 A2995 RMK A01 T03750118  RH  021%=      5-min Rain = 0
KHA2 122311Z 10010KT 38/12 A2995 RMK A01 T03750123  RH  022%=      5-min Rain = 0
KHA2 122312Z 08011KT 38/12 A2995 RMK A01 T03760116  RH  021%=      5-min Rain = 0
KHA2 122313Z 08011KT 38/11 A2995 RMK A01 T03760114  RH  021%=      5-min Rain = 0
KHA2 122314Z 09013KT 38/12 A2995 RMK A01 T03750118  RH  022%=      5-min Rain = 0
KHA2 122315Z 10012KT 37/12 A2994 RMK A01 T03740115  RH  021%=      5-min Rain = 0
KHA2 122316Z 09012KT 37/12 A2995 RMK A01 T03730122  RH  022%=      5-min Rain = 0
KHA2 122317Z 09014KT 37/12 A2995 RMK A01 T03730121  RH  022%=      5-min Rain = 0
KHA2 122318Z 09015KT 37/12 A2995 RMK A01 T03710120  RH  022%=      5-min Rain = 0
KHA2 122319Z 09016KT 37/12 A2995 RMK A01 T03700118  RH  022%=      5-min Rain = 0
KHA2 122320Z 10017KT 37/12 A2995 RMK A01 T03680118  RH  022%=      5-min Rain = 0
KHA2 122321Z 10015KT 36/12 A2994 RMK A01 T03640122  RH  023%=      5-min Rain = 0
KHA2 122322Z 10014KT 36/12 A2994 RMK A01 T03610120  RH  023%=      5-min Rain = 0
KHA2 122323Z 10014KT 36/11 A2995 RMK A01 T03590114  RH  023%=      5-min Rain = 0
KHA2 122324Z 10012KT 36/11 A2995 RMK A01 T03580112  RH  023%=      5-min Rain = 0
KHA2 122325Z 10015KT 36/11 A2995 RMK A01 T03580113  RH  023%=      5-min Rain = 0
KHA2 122326Z 10013KT 36/11 A2995 RMK A01 T03580114  RH  023%=      5-min Rain = 0
KHA2 122327Z 10012KT 36/12 A2995 RMK A01 T03570117  RH  024%=      5-min Rain = 0
KHA2 122328Z 10012KT 36/12 A2994 RMK A01 T03560116  RH  023%=      5-min Rain = 0
KHA2 122329Z 09012KT 36/12 A2994 RMK A01 T03560116  RH  023%=      5-min Rain = 0
KHA2 122330Z 10010KT 36/12 A2994 RMK A01 T03550117  RH  024%=      5-min Rain = 0
KHA2 122331Z 11011KT 36/11 A2994 RMK A01 T03550112  RH  023%=      5-min Rain = 0
KHA2 122332Z 09009KT 36/12 A2994 RMK A01 T03550116  RH  024%=      5-min Rain = 0
KHA2 122333Z 09010KT 36/12 A2994 RMK A01 T03550118  RH  024%=      5-min Rain = 0
KHA2 122334Z 09008KT 36/12 A2994 RMK A01 T03550117  RH  024%=      5-min Rain = 0
KHA2 122335Z 09009KT 36/12 A2994 RMK A01 T03550118  RH  024%=      5-min Rain = 0
KHA2 122336Z 09010KT 36/12 A2994 RMK A01 T03550116  RH  024%=      5-min Rain = 0
KHA2 122337Z 09009KT 36/12 A2994 RMK A01 T03550115  RH  023%=      5-min Rain = 0
KHA2 122338Z 09009KT 36/12 A2994 RMK A01 T03560116  RH  024%=      5-min Rain = 0
KHA2 122339Z 10008KT 36/12 A2994 RMK A01 T03560117  RH  024%=      5-min Rain = 0
KHA2 122340Z 09009KT 36/12 A2995 RMK A01 T03550117  RH  024%=      5-min Rain = 0
KHA2 122341Z 09010KT 36/11 A2995 RMK A01 T03550113  RH  023%=      5-min Rain = 0
KHA2 122342Z 09009KT 36/11 A2995 RMK A01 T03550113  RH  023%=      5-min Rain = 0
KHA2 122343Z 09009KT 36/11 A2995 RMK A01 T03550113  RH  023%=      5-min Rain = 0
KHA2 122344Z 08008KT 36/11 A2995 RMK A01 T03550111  RH  023%=      5-min Rain = 0
KHA2 122345Z 08008KT 36/11 A2995 RMK A01 T03560114  RH  023%=      5-min Rain = 0
KHA2 122346Z 08008KT 36/11 A2995 RMK A01 T03560114  RH  023%=      5-min Rain = 0
KHA2 122347Z 09009KT 36/11 A2995 RMK A01 T03560113  RH  023%=      5-min Rain = 0
KHA2 122348Z 08008KT 36/12 A2995 RMK A01 T03570115  RH  023%=      5-min Rain = 0
KHA2 122349Z 08009KT 36/11 A2995 RMK A01 T03590114  RH  023%=      5-min Rain = 0
KHA2 122350Z 07010KT 36/12 A2995 RMK A01 T03610115  RH  023%=      5-min Rain = 0
KHA2 122351Z 07010KT 36/12 A2995 RMK A01 T03630116  RH  023%=      5-min Rain = 0
KHA2 122352Z 07010KT 36/11 A2995 RMK A01 T03630114  RH  022%=      5-min Rain = 0
KHA2 122353Z 07009KT 36/11 A2995 RMK A01 T03620107  RH  021%=      5-min Rain = 0
KHA2 122354Z 10008KT 36/12 A2995 RMK A01 T03610115  RH  023%=      5-min Rain = 0
KHA2 122355Z 10009KT 36/11 A2995 RMK A01 T03600112  RH  022%=      5-min Rain = 0
KHA2 122356Z 09008KT 36/11 A2995 RMK A01 T03590114  RH  023%=      5-min Rain = 0
KHA2 122357Z 09009KT 36/12 A2995 RMK A01 T03580116  RH  023%=      5-min Rain = 0
KHA2 122358Z 09009KT 36/11 A2995 RMK A01 T03580113  RH  023%=      5-min Rain = 0
KHA2 122359Z 09009KT 36/11 A2995 RMK A01 T03570112  RH  023%=      5-min Rain = 0
KHA2 130000Z 09012KT 36/12 A2995 RMK A01 T03570118  RH  024%=      5-min Rain = 0
KHA2 130001Z 09010KT 36/12 A2995 RMK A01 T03550120  RH  024%=      5-min Rain = 0
KHA2 130002Z 08011KT 35/12 A2995 RMK A01 T03540123  RH  025%=      5-min Rain = 0
KHA2 130003Z 08011KT 35/12 A2995 RMK A01 T03520119  RH  024%=      5-min Rain = 0
KHA2 130004Z 09010KT 35/12 A2995 RMK A01 T03520120  RH  025%=      5-min Rain = 0
KHA2 130005Z 09009KT 35/12 A2995 RMK A01 T03520120  RH  025%=      5-min Rain = 0
KHA2 130006Z 10011KT 35/12 A2995 RMK A01 T03520117  RH  024%=      5-min Rain = 0
KHA2 130007Z 09012KT 35/12 A2995 RMK A01 T03540118  RH  024%=      5-min Rain = 0
KHA2 130008Z 09012KT 36/12 A2995 RMK A01 T03550117  RH  024%=      5-min Rain = 0
KHA2 130009Z 09013KT 36/12 A2995 RMK A01 T03560118  RH  024%=      5-min Rain = 0
KHA2 130010Z 10017KT 36/12 A2995 RMK A01 T03560123  RH  025%=      5-min Rain = 0
KHA2 130011Z 10015KT 35/13 A2995 RMK A01 T03520128  RH  026%=      5-min Rain = 0
KHA2 130012Z 10017KT 35/13 A2995 RMK A01 T03480127  RH  026%=      5-min Rain = 0
KHA2 130013Z 10017KT 35/13 A2995 RMK A01 T03450126  RH  027%=      5-min Rain = 0
KHA2 130014Z 10018KT 34/13 A2995 RMK A01 T03430128  RH  027%=      5-min Rain = 0
KHA2 130015Z 10016KT 34/13 A2995 RMK A01 T03420129  RH  028%=      5-min Rain = 0
KHA2 130016Z 10019KT 34/13 A2995 RMK A01 T03430132  RH  028%=      5-min Rain = 0
KHA2 130017Z 10023KT 34/14 A2995 RMK A01 T03410142  RH  030%=      5-min Rain = 0
KHA2 130018Z 11022KT 34/15 A2995 RMK A01 T03350145  RH  032%=      5-min Rain = 0
KHA2 130019Z 11019KT 33/14 A2995 RMK A01 T03310144  RH  032%=      5-min Rain = 0
KHA2 130020Z 11019KT 33/15 A2995 RMK A01 T03280147  RH  034%=      5-min Rain = 0
KHA2 130021Z 11018KT 33/15 A2995 RMK A01 T03260147  RH  034%=      5-min Rain = 0
KHA2 130022Z 11020KT 33/15 A2995 RMK A01 T03250146  RH  034%=      5-min Rain = 0
KHA2 130023Z 11019KT 32/15 A2995 RMK A01 T03240146  RH  034%=      5-min Rain = 0
KHA2 130024Z 10018KT 32/15 A2995 RMK A01 T03230148  RH  035%=      5-min Rain = 0
KHA2 130025Z 10019KT 32/15 A2995 RMK A01 T03220150  RH  035%=      5-min Rain = 0
KHA2 130026Z 10018KT 32/15 A2995 RMK A01 T03220150  RH  035%=      5-min Rain = 0
KHA2 130027Z 10017KT 32/15 A2995 RMK A01 T03210150  RH  036%=      5-min Rain = 0
KHA2 130028Z 10016KT 32/15 A2995 RMK A01 T03210150  RH  036%=      5-min Rain = 0
KHA2 130029Z 11017KT 32/15 A2995 RMK A01 T03210147  RH  035%=      5-min Rain = 0
KHA2 130030Z 11016KT 32/15 A2995 RMK A01 T03210146  RH  035%=      5-min Rain = 0
KHA2 130031Z 11015KT 32/15 A2995 RMK A01 T03210146  RH  035%=      5-min Rain = 0
KHA2 130032Z 11015KT 32/15 A2995 RMK A01 T03220146  RH  035%=      5-min Rain = 0
KHA2 130033Z 11018KT 32/14 A2995 RMK A01 T03220144  RH  034%=      5-min Rain = 0
KHA2 130034Z 11018KT 32/14 A2995 RMK A01 T03220143  RH  034%=      5-min Rain = 0
KHA2 130035Z 11016KT 32/14 A2995 RMK A01 T03220144  RH  034%=      5-min Rain = 0
KHA2 130036Z 11015KT 32/15 A2995 RMK A01 T03200145  RH  035%=      5-min Rain = 0
KHA2 130037Z 11017KT 32/14 A2995 RMK A01 T03200144  RH  035%=      5-min Rain = 0
KHA2 130038Z 11014KT 32/14 A2995 RMK A01 T03190144  RH  035%=      5-min Rain = 0
KHA2 130039Z 11015KT 32/15 A2995 RMK A01 T03190146  RH  035%=      5-min Rain = 0
KHA2 130040Z 11014KT 32/15 A2995 RMK A01 T03190145  RH  035%=      5-min Rain = 0
KHA2 130041Z 11014KT 32/15 A2995 RMK A01 T03180145  RH  035%=      5-min Rain = 0
KHA2 130042Z 11013KT 32/15 A2995 RMK A01 T03190146  RH  035%=      5-min Rain = 0
KHA2 130043Z 11013KT 32/15 A2995 RMK A01 T03180145  RH  035%=      5-min Rain = 0
KHA2 130044Z 11015KT 32/15 A2995 RMK A01 T03180145  RH  035%=      5-min Rain = 0
KHA2 130045Z 11016KT 32/14 A2995 RMK A01 T03180144  RH  035%=      5-min Rain = 0
KHA2 130046Z 11016KT 32/14 A2995 RMK A01 T03180143  RH  035%=      5-min Rain = 0
KHA2 130047Z 11013KT 32/14 A2996 RMK A01 T03190144  RH  035%=      5-min Rain = 0
KHA2 130048Z 11014KT 32/15 A2996 RMK A01 T03190145  RH  035%=      5-min Rain = 0
KHA2 130049Z 11016KT 32/14 A2996 RMK A01 T03180144  RH  035%=      5-min Rain = 0
KHA2 130050Z 11015KT 32/14 A2996 RMK A01 T03180144  RH  035%=      5-min Rain = 0
KHA2 130051Z 11015KT 32/14 A2996 RMK A01 T03180143  RH  035%=      5-min Rain = 0
KHA2 130052Z 12014KT 32/14 A2996 RMK A01 T03170141  RH  034%=      5-min Rain = 0
KHA2 130053Z 12015KT 32/14 A2996 RMK A01 T03170138  RH  034%=      5-min Rain = 0
KHA2 130054Z 12014KT 32/14 A2996 RMK A01 T03180138  RH  034%=      5-min Rain = 0
KHA2 130055Z 12013KT 32/14 A2996 RMK A01 T03180138  RH  034%=      5-min Rain = 0
KHA2 130056Z 12014KT 32/14 A2996 RMK A01 T03180137  RH  033%=      5-min Rain = 0
KHA2 130057Z 12013KT 32/14 A2996 RMK A01 T03180138  RH  033%=      5-min Rain = 0
KHA2 130058Z 12012KT 32/14 A2996 RMK A01 T03180138  RH  033%=      5-min Rain = 0
KHA2 130059Z 12012KT 32/14 A2996 RMK A01 T03180139  RH  034%=      5-min Rain = 0
KHA2 130100Z 12013KT 32/14 A2996 RMK A01 T03180138  RH  034%=      5-min Rain = 0
KHA2 130101Z 12012KT 32/14 A2996 RMK A01 T03180137  RH  033%=      5-min Rain = 0
KHA2 130102Z 12012KT 32/14 A2996 RMK A01 T03190136  RH  033%=      5-min Rain = 0
KHA2 130103Z 13013KT 32/14 A2996 RMK A01 T03200135  RH  033%=      5-min Rain = 0
KHA2 130104Z 12013KT 32/13 A2996 RMK A01 T03200132  RH  032%=      5-min Rain = 0
KHA2 130105Z 13013KT 32/13 A2996 RMK A01 T03210131  RH  031%=      5-min Rain = 0
KHA2 130106Z 12013KT 32/13 A2996 RMK A01 T03220130  RH  031%=      5-min Rain = 0
KHA2 130107Z 13012KT 32/13 A2996 RMK A01 T03220128  RH  031%=      5-min Rain = 0
KHA2 130108Z 12013KT 32/13 A2996 RMK A01 T03230129  RH  031%=      5-min Rain = 0
KHA2 130109Z 12014KT 32/13 A2996 RMK A01 T03220127  RH  030%=      5-min Rain = 0
KHA2 130110Z 12013KT 32/13 A2996 RMK A01 T03230126  RH  030%=      5-min Rain = 0
KHA2 130111Z 12012KT 32/13 A2996 RMK A01 T03230127  RH  030%=      5-min Rain = 0
KHA2 130112Z 12012KT 32/13 A2996 RMK A01 T03220126  RH  030%=      5-min Rain = 0
KHA2 130113Z 13011KT 32/13 A2996 RMK A01 T03220127  RH  030%=      5-min Rain = 0
KHA2 130114Z 12011KT 32/13 A2996 RMK A01 T03210126  RH  030%=      5-min Rain = 0
KHA2 130115Z 12012KT 32/13 A2996 RMK A01 T03200125  RH  030%=      5-min Rain = 0
KHA2 130116Z 13011KT 32/13 A2996 RMK A01 T03210126  RH  030%=      5-min Rain = 0
KHA2 130117Z 13013KT 32/12 A2996 RMK A01 T03200124  RH  030%=      5-min Rain = 0
KHA2 130118Z 13011KT 32/12 A2996 RMK A01 T03200123  RH  030%=      5-min Rain = 0
KHA2 130119Z 13012KT 32/12 A2996 RMK A01 T03200123  RH  030%=      5-min Rain = 0
KHA2 130120Z 13013KT 32/12 A2996 RMK A01 T03200123  RH  030%=      5-min Rain = 0
KHA2 130121Z 13014KT 32/12 A2996 RMK A01 T03190121  RH  030%=      5-min Rain = 0
KHA2 130122Z 13013KT 32/12 A2996 RMK A01 T03200120  RH  030%=      5-min Rain = 0
KHA2 130123Z 13013KT 32/12 A2996 RMK A01 T03190121  RH  030%=      5-min Rain = 0
KHA2 130124Z 12012KT 32/12 A2996 RMK A01 T03180121  RH  030%=      5-min Rain = 0
KHA2 130125Z 13014KT 32/12 A2996 RMK A01 T03170120  RH  030%=      5-min Rain = 0
KHA2 130126Z 13013KT 32/12 A2996 RMK A01 T03170119  RH  030%=      5-min Rain = 0
KHA2 130127Z 13012KT 32/12 A2996 RMK A01 T03170119  RH  030%=      5-min Rain = 0
KHA2 130128Z 13013KT 32/12 A2996 RMK A01 T03160119  RH  030%=      5-min Rain = 0
KHA2 130129Z 13013KT 32/12 A2996 RMK A01 T03150119  RH  030%=      5-min Rain = 0
KHA2 130130Z 13012KT 31/12 A2996 RMK A01 T03140119  RH  030%=      5-min Rain = 0
KHA2 130131Z 13012KT 31/12 A2996 RMK A01 T03130119  RH  030%=      5-min Rain = 0
KHA2 130132Z 13012KT 31/12 A2996 RMK A01 T03120119  RH  031%=      5-min Rain = 0
KHA2 130133Z 13011KT 31/12 A2996 RMK A01 T03110119  RH  031%=      5-min Rain = 0
KHA2 130134Z 12012KT 31/12 A2996 RMK A01 T03100119  RH  031%=      5-min Rain = 0
KHA2 130135Z 12011KT 31/12 A2996 RMK A01 T03100118  RH  031%=      5-min Rain = 0
KHA2 130136Z 13012KT 31/12 A2996 RMK A01 T03090119  RH  031%=      5-min Rain = 0
KHA2 130137Z 12011KT 31/12 A2997 RMK A01 T03080119  RH  031%=      5-min Rain = 0
KHA2 130138Z 12012KT 31/12 A2997 RMK A01 T03070119  RH  032%=      5-min Rain = 0
KHA2 130139Z 12011KT 31/12 A2997 RMK A01 T03060119  RH  032%=      5-min Rain = 0
KHA2 130140Z 12011KT 31/12 A2997 RMK A01 T03050119  RH  032%=      5-min Rain = 0
KHA2 130141Z 12011KT 31/12 A2997 RMK A01 T03050120  RH  032%=      5-min Rain = 0
KHA2 130142Z 13012KT 30/12 A2997 RMK A01 T03040119  RH  032%=      5-min Rain = 0
KHA2 130143Z 12011KT 30/12 A2997 RMK A01 T03040120  RH  032%=      5-min Rain = 0
KHA2 130144Z 12012KT 30/12 A2997 RMK A01 T03030120  RH  032%=      5-min Rain = 0
KHA2 130145Z 13011KT 30/12 A2997 RMK A01 T03020120  RH  033%=      5-min Rain = 0
KHA2 130146Z 13013KT 30/12 A2997 RMK A01 T03020120  RH  033%=      5-min Rain = 0
KHA2 130147Z 13012KT 30/12 A2997 RMK A01 T03020120  RH  033%=      5-min Rain = 0
KHA2 130148Z 13013KT 30/12 A2997 RMK A01 T03020119  RH  033%=      5-min Rain = 0
KHA2 130149Z 13012KT 30/12 A2997 RMK A01 T03020120  RH  033%=      5-min Rain = 0
KHA2 130150Z 13012KT 30/12 A2997 RMK A01 T03030121  RH  033%=      5-min Rain = 0
KHA2 130151Z 13012KT 30/12 A2997 RMK A01 T03020121  RH  033%=      5-min Rain = 0
KHA2 130152Z 13013KT 30/12 A2997 RMK A01 T03020122  RH  033%=      5-min Rain = 0
KHA2 130153Z 13012KT 30/12 A2997 RMK A01 T03020123  RH  033%=      5-min Rain = 0
KHA2 130154Z 13012KT 30/12 A2997 RMK A01 T03010123  RH  033%=      5-min Rain = 0
KHA2 130155Z 13012KT 30/12 A2997 RMK A01 T03010124  RH  034%=      5-min Rain = 0
KHA2 130156Z 13013KT 30/12 A2997 RMK A01 T03000124  RH  034%=      5-min Rain = 0
KHA2 130157Z 13013KT 30/13 A2997 RMK A01 T03000125  RH  034%=      5-min Rain = 0
KHA2 130158Z 13012KT 30/13 A2997 RMK A01 T03000125  RH  034%=      5-min Rain = 0
KHA2 130159Z 13012KT 30/13 A2997 RMK A01 T03000126  RH  034%=      5-min Rain = 0
KHA2 130200Z 13012KT 30/13 A2997 RMK A01 T02990126  RH  035%=      5-min Rain = 0
KHA2 130201Z 13012KT 30/13 A2997 RMK A01 T02980127  RH  035%=      5-min Rain = 0
KHA2 130202Z 13012KT 30/13 A2997 RMK A01 T02970127  RH  035%=      5-min Rain = 0
KHA2 130203Z 13012KT 30/13 A2997 RMK A01 T02970128  RH  035%=      5-min Rain = 0
KHA2 130204Z 13013KT 30/13 A2997 RMK A01 T02960127  RH  036%=      5-min Rain = 0
KHA2 130205Z 13013KT 30/13 A2997 RMK A01 T02950127  RH  035%=      5-min Rain = 0
KHA2 130206Z 13014KT 30/13 A2997 RMK A01 T02950127  RH  035%=      5-min Rain = 0
KHA2 130207Z 13015KT 30/13 A2997 RMK A01 T02950126  RH  035%=      5-min Rain = 0
KHA2 130208Z 14015KT 30/13 A2997 RMK A01 T02960127  RH  035%=      5-min Rain = 0
KHA2 130209Z 14015KT 30/13 A2997 RMK A01 T02960126  RH  035%=      5-min Rain = 0
KHA2 130210Z 14013KT 30/13 A2997 RMK A01 T02970126  RH  035%=      5-min Rain = 0
KHA2 130211Z 14014KT 30/13 A2997 RMK A01 T02960126  RH  035%=      5-min Rain = 0
KHA2 130212Z 14013KT 30/13 A2997 RMK A01 T02960126  RH  035%=      5-min Rain = 0
KHA2 130213Z 14015KT 30/13 A2997 RMK A01 T02950126  RH  035%=      5-min Rain = 0
KHA2 130214Z 14014KT 30/13 A2998 RMK A01 T02950126  RH  035%=      5-min Rain = 0
KHA2 130215Z 14015KT 29/13 A2997 RMK A01 T02940126  RH  036%=      5-min Rain = 0
KHA2 130216Z 14014KT 29/13 A2998 RMK A01 T02940126  RH  036%=      5-min Rain = 0
KHA2 130217Z 14015KT 29/13 A2998 RMK A01 T02940127  RH  036%=      5-min Rain = 0
KHA2 130218Z 14014KT 29/13 A2998 RMK A01 T02930127  RH  036%=      5-min Rain = 0
KHA2 130219Z 14014KT 29/13 A2998 RMK A01 T02930127  RH  036%=      5-min Rain = 0
KHA2 130220Z 14013KT 29/13 A2998 RMK A01 T02920127  RH  036%=      5-min Rain = 0
KHA2 130221Z 14013KT 29/13 A2998 RMK A01 T02920127  RH  036%=      5-min Rain = 0
KHA2 130222Z 14013KT 29/13 A2998 RMK A01 T02910127  RH  036%=      5-min Rain = 0
KHA2 130223Z 14013KT 29/13 A2998 RMK A01 T02900128  RH  037%=      5-min Rain = 0
KHA2 130224Z 14014KT 29/13 A2998 RMK A01 T02900128  RH  037%=      5-min Rain = 0
KHA2 130225Z 14014G19KT 29/13 A2998 RMK A01 T02900127  RH  037%=      5-min Rain = 0
KHA2 130226Z 14014KT 29/13 A2998 RMK A01 T02900127  RH  037%=      5-min Rain = 0
KHA2 130227Z 14014KT 29/13 A2998 RMK A01 T02900127  RH  037%=      5-min Rain = 0
KHA2 130228Z 14014KT 29/13 A2998 RMK A01 T02900127  RH  037%=      5-min Rain = 0
KHA2 130229Z 14013KT 29/13 A2998 RMK A01 T02900127  RH  037%=      5-min Rain = 0
KHA2 130230Z 15015KT 29/13 A2998 RMK A01 T02900128  RH  037%=      5-min Rain = 0
KHA2 130231Z 14014KT 29/13 A2998 RMK A01 T02900127  RH  037%=      5-min Rain = 0
KHA2 130232Z 15015KT 29/13 A2998 RMK A01 T02900127  RH  037%=      5-min Rain = 0
KHA2 130233Z 15013KT 29/13 A2998 RMK A01 T02900128  RH  037%=      5-min Rain = 0
KHA2 130234Z 15014KT 29/13 A2998 RMK A01 T02890128  RH  037%=      5-min Rain = 0
KHA2 130235Z 15013KT 29/13 A2998 RMK A01 T02890127  RH  037%=      5-min Rain = 0
KHA2 130236Z 15014KT 29/13 A2998 RMK A01 T02880127  RH  037%=      5-min Rain = 0
KHA2 130237Z 15013KT 29/13 A2998 RMK A01 T02880128  RH  037%=      5-min Rain = 0
KHA2 130238Z 15013KT 29/13 A2999 RMK A01 T02870128  RH  037%=      5-min Rain = 0
KHA2 130239Z 14013KT 29/13 A2999 RMK A01 T02870128  RH  038%=      5-min Rain = 0
KHA2 130240Z 15013KT 29/13 A2999 RMK A01 T02860128  RH  038%=      5-min Rain = 0
KHA2 130241Z 15013KT 29/13 A2999 RMK A01 T02860128  RH  038%=      5-min Rain = 0
KHA2 130242Z 15013KT 29/13 A2999 RMK A01 T02850128  RH  038%=      5-min Rain = 0
KHA2 130243Z 15014KT 29/13 A2999 RMK A01 T02850129  RH  038%=      5-min Rain = 0
KHA2 130244Z 15013KT 29/13 A2999 RMK A01 T02850128  RH  038%=      5-min Rain = 0
KHA2 130245Z 15013KT 29/13 A2999 RMK A01 T02850128  RH  038%=      5-min Rain = 0
KHA2 130246Z 15014KT 29/13 A2999 RMK A01 T02850129  RH  038%=      5-min Rain = 0
KHA2 130247Z 15013KT 29/13 A2999 RMK A01 T02850129  RH  038%=      5-min Rain = 0
KHA2 130248Z 15014KT 28/13 A2999 RMK A01 T02840129  RH  038%=      5-min Rain = 0
KHA2 130249Z 15012KT 28/13 A2999 RMK A01 T02840129  RH  038%=      5-min Rain = 0
KHA2 130250Z 15013KT 28/13 A2999 RMK A01 T02840129  RH  038%=      5-min Rain = 0
KHA2 130251Z 15013KT 29/13 A2999 RMK A01 T02850129  RH  038%=      5-min Rain = 0
KHA2 130252Z 15014KT 28/13 A2999 RMK A01 T02840129  RH  038%=      5-min Rain = 0
KHA2 130253Z 15012KT 29/13 A2999 RMK A01 T02850129  RH  038%=      5-min Rain = 0
KHA2 130254Z 15012KT 28/13 A2999 RMK A01 T02840129  RH  038%=      5-min Rain = 0
KHA2 130255Z 15013KT 28/13 A2999 RMK A01 T02840129  RH  038%=      5-min Rain = 0
KHA2 130256Z 15014KT 28/13 A30 RMK A01 T02840128  RH  038%=      5-min Rain = 0
KHA2 130257Z 15013KT 28/13 A30 RMK A01 T02840129  RH  038%=      5-min Rain = 0
KHA2 130258Z 15013KT 28/13 A30 RMK A01 T02840129  RH  038%=      5-min Rain = 0
KHA2 130259Z 15013KT 28/13 A30 RMK A01 T02840129  RH  038%=      5-min Rain = 0
KHA2 130300Z 15012KT 28/13 A30 RMK A01 T02840129  RH  039%=      5-min Rain = 0
KHA2 130301Z 15013KT 28/13 A30 RMK A01 T02830129  RH  039%=      5-min Rain = 0
KHA2 130302Z 15013KT 28/13 A30 RMK A01 T02830130  RH  039%=      5-min Rain = 0
KHA2 130303Z 15012KT 28/13 A30 RMK A01 T02830129  RH  039%=      5-min Rain = 0
KHA2 130304Z 15012KT 28/13 A30 RMK A01 T02830130  RH  039%=      5-min Rain = 0
KHA2 130305Z 15013KT 28/13 A30 RMK A01 T02820130  RH  039%=      5-min Rain = 0
KHA2 130306Z 15013KT 28/13 A30 RMK A01 T02810130  RH  039%=      5-min Rain = 0
KHA2 130307Z 15012KT 28/13 A30 RMK A01 T02810130  RH  039%=      5-min Rain = 0
KHA2 130308Z 15012KT 28/13 A30 RMK A01 T02810130  RH  039%=      5-min Rain = 0
KHA2 130309Z 15012KT 28/13 A30 RMK A01 T02800130  RH  039%=      5-min Rain = 0
KHA2 130310Z 15012KT 28/13 A30 RMK A01 T02810130  RH  040%=      5-min Rain = 0
KHA2 130311Z 15012KT 28/13 A30 RMK A01 T02800131  RH  040%=      5-min Rain = 0
KHA2 130312Z 15012KT 28/13 A30 RMK A01 T02800131  RH  040%=      5-min Rain = 0
KHA2 130313Z 15011KT 28/13 A30 RMK A01 T02790131  RH  040%=      5-min Rain = 0
KHA2 130314Z 15012KT 28/13 A30 RMK A01 T02790131  RH  040%=      5-min Rain = 0
KHA2 130315Z 15012KT 28/13 A30 RMK A01 T02780131  RH  040%=      5-min Rain = 0
KHA2 130316Z 15012KT 28/13 A30 RMK A01 T02780132  RH  040%=      5-min Rain = 0
KHA2 130317Z 15011KT 28/13 A30 RMK A01 T02780132  RH  041%=      5-min Rain = 0
KHA2 130318Z 15011KT 28/13 A30 RMK A01 T02760132  RH  041%=      5-min Rain = 0
KHA2 130319Z 15012KT 28/13 A3001 RMK A01 T02760132  RH  041%=      5-min Rain = 0
KHA2 130320Z 15012KT 28/13 A3001 RMK A01 T02770132  RH  041%=      5-min Rain = 0
KHA2 130321Z 15011KT 28/13 A3001 RMK A01 T02770132  RH  041%=      5-min Rain = 0
KHA2 130322Z 15012KT 28/13 A3001 RMK A01 T02770133  RH  041%=      5-min Rain = 0
KHA2 130323Z 15012KT 28/13 A3001 RMK A01 T02770133  RH  041%=      5-min Rain = 0
KHA2 130324Z 15011KT 28/13 A3001 RMK A01 T02760133  RH  041%=      5-min Rain = 0
KHA2 130325Z 15011KT 28/13 A3001 RMK A01 T02760133  RH  041%=      5-min Rain = 0
KHA2 130326Z 15011KT 28/13 A3001 RMK A01 T02750134  RH  042%=      5-min Rain = 0
KHA2 130327Z 15011KT 28/13 A3001 RMK A01 T02750134  RH  042%=      5-min Rain = 0
KHA2 130328Z 15011KT 27/13 A3001 RMK A01 T02740134  RH  042%=      5-min Rain = 0
KHA2 130329Z 15010KT 27/13 A3001 RMK A01 T02740134  RH  042%=      5-min Rain = 0
KHA2 130330Z 16010KT 27/13 A3001 RMK A01 T02730134  RH  042%=      5-min Rain = 0
KHA2 130331Z 15010KT 27/13 A3001 RMK A01 T02730134  RH  042%=      5-min Rain = 0
KHA2 130332Z 15010KT 27/13 A3001 RMK A01 T02720134  RH  043%=      5-min Rain = 0
KHA2 130333Z 15011KT 27/14 A3001 RMK A01 T02710135  RH  043%=      5-min Rain = 0
KHA2 130334Z 15011KT 27/14 A3001 RMK A01 T02710135  RH  043%=      5-min Rain = 0
KHA2 130335Z 15010KT 27/13 A3001 RMK A01 T02710134  RH  043%=      5-min Rain = 0
KHA2 130336Z 15010KT 27/14 A3001 RMK A01 T02710135  RH  043%=      5-min Rain = 0
KHA2 130337Z 15010KT 27/14 A3001 RMK A01 T02700135  RH  043%=      5-min Rain = 0
KHA2 130338Z 15010KT 27/14 A3001 RMK A01 T02700135  RH  044%=      5-min Rain = 0
KHA2 130339Z 15011KT 27/14 A3001 RMK A01 T02690135  RH  044%=      5-min Rain = 0
KHA2 130340Z 15010KT 27/14 A3001 RMK A01 T02690136  RH  044%=      5-min Rain = 0
KHA2 130341Z 15009KT 27/14 A3001 RMK A01 T02680135  RH  044%=      5-min Rain = 0
KHA2 130342Z 15010KT 27/14 A3001 RMK A01 T02680136  RH  044%=      5-min Rain = 0
KHA2 130343Z 15010KT 27/14 A3001 RMK A01 T02680136  RH  044%=      5-min Rain = 0
KHA2 130344Z 15010KT 27/14 A3001 RMK A01 T02680136  RH  044%=      5-min Rain = 0
KHA2 130345Z 15010KT 27/14 A3001 RMK A01 T02670136  RH  044%=      5-min Rain = 0
KHA2 130346Z 15010KT 27/14 A3001 RMK A01 T02670136  RH  044%=      5-min Rain = 0
KHA2 130347Z 15010KT 27/14 A3001 RMK A01 T02670136  RH  044%=      5-min Rain = 0
KHA2 130348Z 15010KT 27/14 A3001 RMK A01 T02660136  RH  045%=      5-min Rain = 0
KHA2 130349Z 15009KT 27/14 A3001 RMK A01 T02650136  RH  045%=      5-min Rain = 0
KHA2 130350Z 15009KT 27/14 A3001 RMK A01 T02650136  RH  045%=      5-min Rain = 0
KHA2 130351Z 15010KT 26/14 A3001 RMK A01 T02640136  RH  045%=      5-min Rain = 0
KHA2 130352Z 15010KT 26/14 A3001 RMK A01 T02630136  RH  045%=      5-min Rain = 0
KHA2 130353Z 15010KT 26/14 A3001 RMK A01 T02630136  RH  046%=      5-min Rain = 0
KHA2 130354Z 15010KT 26/14 A3001 RMK A01 T02630137  RH  046%=      5-min Rain = 0
KHA2 130355Z 15010KT 26/14 A3001 RMK A01 T02630137  RH  046%=      5-min Rain = 0
KHA2 130356Z 16009KT 26/14 A3001 RMK A01 T02620137  RH  046%=      5-min Rain = 0
KHA2 130357Z 16009KT 26/14 A3001 RMK A01 T02620137  RH  046%=      5-min Rain = 0
KHA2 130358Z 15010KT 26/14 A3001 RMK A01 T02610137  RH  046%=      5-min Rain = 0
KHA2 130359Z 15009KT 26/14 A3001 RMK A01 T02600137  RH  046%=      5-min Rain = 0
KHA2 130400Z 15010KT 26/14 A3001 RMK A01 T02600137  RH  047%=      5-min Rain = 0
KHA2 130401Z 15009KT 26/14 A3001 RMK A01 T02600138  RH  047%=      5-min Rain = 0
KHA2 130402Z 16009KT 26/14 A3001 RMK A01 T02590138  RH  047%=      5-min Rain = 0
KHA2 130403Z 16009KT 26/14 A3001 RMK A01 T02580138  RH  047%=      5-min Rain = 0
KHA2 130404Z 16009KT 26/14 A3001 RMK A01 T02570138  RH  048%=      5-min Rain = 0
KHA2 130405Z 16009KT 26/14 A3001 RMK A01 T02570137  RH  048%=      5-min Rain = 0
KHA2 130406Z 16008KT 26/14 A3001 RMK A01 T02560138  RH  048%=      5-min Rain = 0
KHA2 130407Z 16009KT 26/14 A3001 RMK A01 T02550137  RH  048%=      5-min Rain = 0
KHA2 130408Z 16009KT 26/14 A3001 RMK A01 T02550138  RH  048%=      5-min Rain = 0
KHA2 130409Z 16008KT 25/14 A3001 RMK A01 T02540137  RH  048%=      5-min Rain = 0
KHA2 130410Z 16008KT 25/14 A3001 RMK A01 T02530138  RH  049%=      5-min Rain = 0
KHA2 130411Z 17008KT 25/14 A3001 RMK A01 T02520138  RH  049%=      5-min Rain = 0
KHA2 130412Z 17008KT 25/14 A3001 RMK A01 T02510137  RH  049%=      5-min Rain = 0
KHA2 130413Z 17008KT 25/14 A3001 RMK A01 T02500137  RH  049%=      5-min Rain = 0
KHA2 130414Z 17008KT 25/14 A3001 RMK A01 T02500137  RH  049%=      5-min Rain = 0
KHA2 130415Z 17008KT 25/14 A3001 RMK A01 T02500137  RH  049%=      5-min Rain = 0
KHA2 130416Z 17008KT 25/14 A3001 RMK A01 T02490136  RH  050%=      5-min Rain = 0
KHA2 130417Z 17008KT 25/14 A3001 RMK A01 T02490136  RH  050%=      5-min Rain = 0
KHA2 130418Z 17008KT 25/14 A3001 RMK A01 T02490136  RH  050%=      5-min Rain = 0
KHA2 130419Z 17008KT 25/14 A3001 RMK A01 T02480136  RH  050%=      5-min Rain = 0
KHA2 130420Z 17008KT 25/14 A3001 RMK A01 T02480136  RH  050%=      5-min Rain = 0
KHA2 130421Z 17008KT 25/14 A3001 RMK A01 T02480136  RH  050%=      5-min Rain = 0
KHA2 130422Z 17008KT 25/14 A3001 RMK A01 T02470136  RH  050%=      5-min Rain = 0
KHA2 130423Z 18008KT 25/14 A3002 RMK A01 T02470135  RH  050%=      5-min Rain = 0
KHA2 130424Z 18008KT 25/14 A3002 RMK A01 T02470136  RH  050%=      5-min Rain = 0
KHA2 130425Z 18008KT 25/14 A3002 RMK A01 T02460136  RH  050%=      5-min Rain = 0
KHA2 130426Z 18008KT 25/14 A3002 RMK A01 T02460135  RH  050%=      5-min Rain = 0
KHA2 130427Z 18008KT 25/14 A3002 RMK A01 T02450135  RH  050%=      5-min Rain = 0
KHA2 130428Z 18008KT 25/14 A3001 RMK A01 T02450135  RH  050%=      5-min Rain = 0
KHA2 130429Z 18008KT 25/14 A3002 RMK A01 T02450135  RH  050%=      5-min Rain = 0
KHA2 130430Z 18008KT 24/14 A3002 RMK A01 T02440135  RH  050%=      5-min Rain = 0
KHA2 130431Z 18008KT 24/14 A3002 RMK A01 T02440135  RH  051%=      5-min Rain = 0
KHA2 130432Z 18008KT 24/14 A3002 RMK A01 T02440135  RH  051%=      5-min Rain = 0
KHA2 130433Z 18007KT 24/14 A3002 RMK A01 T02440135  RH  051%=      5-min Rain = 0
KHA2 130434Z 18008KT 24/14 A3002 RMK A01 T02430135  RH  051%=      5-min Rain = 0
KHA2 130435Z 18008KT 24/14 A3002 RMK A01 T02430135  RH  051%=      5-min Rain = 0
KHA2 130436Z 18008KT 24/14 A3002 RMK A01 T02440135  RH  051%=      5-min Rain = 0
KHA2 130437Z 18008KT 24/14 A3002 RMK A01 T02440135  RH  051%=      5-min Rain = 0
KHA2 130438Z 18008KT 24/14 A3001 RMK A01 T02430135  RH  051%=      5-min Rain = 0
KHA2 130439Z 18008KT 24/14 A3001 RMK A01 T02440135  RH  051%=      5-min Rain = 0
KHA2 130440Z 18008KT 24/14 A3001 RMK A01 T02440136  RH  051%=      5-min Rain = 0
KHA2 130441Z 18007KT 24/14 A3001 RMK A01 T02430136  RH  051%=      5-min Rain = 0
KHA2 130442Z 18007KT 24/14 A3001 RMK A01 T02420136  RH  051%=      5-min Rain = 0
KHA2 130443Z 18007KT 24/14 A3001 RMK A01 T02410136  RH  052%=      5-min Rain = 0
KHA2 130444Z 18007KT 24/14 A3001 RMK A01 T02400136  RH  052%=      5-min Rain = 0
KHA2 130445Z 19007KT 24/14 A3001 RMK A01 T02390137  RH  053%=      5-min Rain = 0
KHA2 130446Z 19007KT 24/14 A3001 RMK A01 T02380137  RH  053%=      5-min Rain = 0
KHA2 130447Z 19007KT 24/14 A3001 RMK A01 T02370136  RH  053%=      5-min Rain = 0
KHA2 130448Z 19007KT 24/14 A3001 RMK A01 T02370136  RH  053%=      5-min Rain = 0
KHA2 130449Z 19007KT 24/14 A3001 RMK A01 T02370136  RH  053%=      5-min Rain = 0
KHA2 130450Z 19007KT 24/14 A3001 RMK A01 T02370137  RH  053%=      5-min Rain = 0
KHA2 130451Z 19008KT 24/14 A3001 RMK A01 T02370136  RH  053%=      5-min Rain = 0
KHA2 130452Z 19008KT 24/14 A3001 RMK A01 T02380137  RH  053%=      5-min Rain = 0
KHA2 130453Z 19008KT 24/14 A3001 RMK A01 T02390137  RH  053%=      5-min Rain = 0
KHA2 130454Z 19007KT 24/14 A3001 RMK A01 T02390137  RH  053%=      5-min Rain = 0
KHA2 130455Z 20007KT 24/14 A3001 RMK A01 T02390137  RH  053%=      5-min Rain = 0
KHA2 130456Z 20007KT 24/14 A3001 RMK A01 T02400137  RH  053%=      5-min Rain = 0
KHA2 130457Z 19007KT 24/14 A3001 RMK A01 T02390136  RH  053%=      5-min Rain = 0
KHA2 130458Z 19007KT 24/14 A3001 RMK A01 T02380136  RH  053%=      5-min Rain = 0
KHA2 130459Z 19007KT 24/13 A3001 RMK A01 T02370134  RH  053%=      5-min Rain = 0

Page generated in 0.1271 seconds.